<?xml version="1.0" encoding="UTF-8" standalone="no" ?>
<gpx xmlns="http://www.topografix.com/GPX/1/1" xmlns:xsi="http://www.w3.org/2001/XMLSchema-instance" xsi:schemaLocation="http://www.topografix.com/GPX/1/1 http://www.topografix.com/GPX/1/1/gpx.xsd" version="1.1" creator="VisuGPX - https://www.visugpx.com">
  <metadata>
    <name>ESTEREL Mont Vinaigre 2017 HW</name>
    <desc><![CDATA[Trace réalisée le dimanche 13 Août par Hubert W en compagnie de Adrian et de Paul.
Départ du parking de la Colle douce accessible en voiture.
Temps parfait, paysages magnifiques.
 ]]></desc>
  </metadata>
  <trk>
    <name><![CDATA[ACTIVE LOG- 13 AOU 2017 10-05-MNT]]></name>
    <trkseg>
      <trkpt lat="43.46581" lon="6.78996">
        <ele>117.090347</ele>
        <time>2017-08-13T08:05:49Z</time>
      </trkpt>
      <trkpt lat="43.46597" lon="6.79003">
        <ele>116.694412</ele>
        <time>2017-08-13T08:09:57Z</time>
      </trkpt>
      <trkpt lat="43.46609" lon="6.79014">
        <ele>116.958748</ele>
        <time>2017-08-13T08:10:18Z</time>
      </trkpt>
      <trkpt lat="43.46574" lon="6.78991">
        <ele>117.372551</ele>
        <time>2017-08-13T08:11:47Z</time>
      </trkpt>
      <trkpt lat="43.46579" lon="6.78942">
        <ele>115.882484</ele>
        <time>2017-08-13T08:12:04Z</time>
      </trkpt>
      <trkpt lat="43.46622" lon="6.78937">
        <ele>112.257202</ele>
        <time>2017-08-13T08:12:13Z</time>
      </trkpt>
      <trkpt lat="43.46663" lon="6.78941">
        <ele>112.559448</ele>
        <time>2017-08-13T08:12:25Z</time>
      </trkpt>
      <trkpt lat="43.46691" lon="6.78981">
        <ele>109.954147</ele>
        <time>2017-08-13T08:12:41Z</time>
      </trkpt>
      <trkpt lat="43.46719" lon="6.79025">
        <ele>105.87146</ele>
        <time>2017-08-13T08:12:54Z</time>
      </trkpt>
      <trkpt lat="43.46743" lon="6.79073">
        <ele>102.589844</ele>
        <time>2017-08-13T08:13:05Z</time>
      </trkpt>
      <trkpt lat="43.4676" lon="6.79122">
        <ele>103.819641</ele>
        <time>2017-08-13T08:13:17Z</time>
      </trkpt>
      <trkpt lat="43.4678" lon="6.79173">
        <ele>108.074127</ele>
        <time>2017-08-13T08:13:29Z</time>
      </trkpt>
      <trkpt lat="43.46803" lon="6.79218">
        <ele>109.454697</ele>
        <time>2017-08-13T08:13:41Z</time>
      </trkpt>
      <trkpt lat="43.46831" lon="6.79259">
        <ele>108.400352</ele>
        <time>2017-08-13T08:13:53Z</time>
      </trkpt>
      <trkpt lat="43.4687" lon="6.79267">
        <ele>108.755272</ele>
        <time>2017-08-13T08:14:06Z</time>
      </trkpt>
      <trkpt lat="43.46909" lon="6.79257">
        <ele>110.780006</ele>
        <time>2017-08-13T08:14:22Z</time>
      </trkpt>
      <trkpt lat="43.46948" lon="6.7924">
        <ele>117.05645</ele>
        <time>2017-08-13T08:14:33Z</time>
      </trkpt>
      <trkpt lat="43.4695" lon="6.79281">
        <ele>115.864761</ele>
        <time>2017-08-13T08:14:46Z</time>
      </trkpt>
      <trkpt lat="43.46928" lon="6.7933">
        <ele>115.264374</ele>
        <time>2017-08-13T08:14:58Z</time>
      </trkpt>
      <trkpt lat="43.46939" lon="6.79378">
        <ele>118.58078</ele>
        <time>2017-08-13T08:15:11Z</time>
      </trkpt>
      <trkpt lat="43.46923" lon="6.79429">
        <ele>115.25856</ele>
        <time>2017-08-13T08:15:23Z</time>
      </trkpt>
      <trkpt lat="43.46918" lon="6.79485">
        <ele>113.880997</ele>
        <time>2017-08-13T08:15:35Z</time>
      </trkpt>
      <trkpt lat="43.46946" lon="6.79491">
        <ele>113.142754</ele>
        <time>2017-08-13T08:15:51Z</time>
      </trkpt>
      <trkpt lat="43.46981" lon="6.79469">
        <ele>115.169502</ele>
        <time>2017-08-13T08:16:11Z</time>
      </trkpt>
      <trkpt lat="43.47019" lon="6.79453">
        <ele>122.880447</ele>
        <time>2017-08-13T08:16:33Z</time>
      </trkpt>
      <trkpt lat="43.47057" lon="6.79429">
        <ele>134.313156</ele>
        <time>2017-08-13T08:16:57Z</time>
      </trkpt>
      <trkpt lat="43.47072" lon="6.79459">
        <ele>134.859894</ele>
        <time>2017-08-13T08:17:20Z</time>
      </trkpt>
      <trkpt lat="43.47059" lon="6.79512">
        <ele>131.005951</ele>
        <time>2017-08-13T08:17:41Z</time>
      </trkpt>
      <trkpt lat="43.47043" lon="6.79562">
        <ele>124.941055</ele>
        <time>2017-08-13T08:18:04Z</time>
      </trkpt>
      <trkpt lat="43.47073" lon="6.79589">
        <ele>129.587372</ele>
        <time>2017-08-13T08:18:25Z</time>
      </trkpt>
      <trkpt lat="43.47112" lon="6.79592">
        <ele>130.571716</ele>
        <time>2017-08-13T08:18:48Z</time>
      </trkpt>
      <trkpt lat="43.47144" lon="6.79563">
        <ele>132.570419</ele>
        <time>2017-08-13T08:19:08Z</time>
      </trkpt>
      <trkpt lat="43.47157" lon="6.79512">
        <ele>138.511246</ele>
        <time>2017-08-13T08:19:30Z</time>
      </trkpt>
      <trkpt lat="43.47164" lon="6.79461">
        <ele>142.998138</ele>
        <time>2017-08-13T08:19:50Z</time>
      </trkpt>
      <trkpt lat="43.47173" lon="6.79407">
        <ele>146.090744</ele>
        <time>2017-08-13T08:20:12Z</time>
      </trkpt>
      <trkpt lat="43.47187" lon="6.79355">
        <ele>151.377716</ele>
        <time>2017-08-13T08:20:33Z</time>
      </trkpt>
      <trkpt lat="43.47216" lon="6.79316">
        <ele>155.684006</ele>
        <time>2017-08-13T08:20:52Z</time>
      </trkpt>
      <trkpt lat="43.47252" lon="6.79291">
        <ele>158.495468</ele>
        <time>2017-08-13T08:21:14Z</time>
      </trkpt>
      <trkpt lat="43.47292" lon="6.79306">
        <ele>162.513748</ele>
        <time>2017-08-13T08:21:31Z</time>
      </trkpt>
      <trkpt lat="43.47311" lon="6.79354">
        <ele>164.199524</ele>
        <time>2017-08-13T08:21:46Z</time>
      </trkpt>
      <trkpt lat="43.47305" lon="6.79413">
        <ele>163.126495</ele>
        <time>2017-08-13T08:22:00Z</time>
      </trkpt>
      <trkpt lat="43.47309" lon="6.79471">
        <ele>164.817505</ele>
        <time>2017-08-13T08:22:16Z</time>
      </trkpt>
      <trkpt lat="43.47324" lon="6.79525">
        <ele>167.641129</ele>
        <time>2017-08-13T08:22:31Z</time>
      </trkpt>
      <trkpt lat="43.47334" lon="6.7958">
        <ele>164.522705</ele>
        <time>2017-08-13T08:22:46Z</time>
      </trkpt>
      <trkpt lat="43.47355" lon="6.79621">
        <ele>162.137512</ele>
        <time>2017-08-13T08:23:03Z</time>
      </trkpt>
      <trkpt lat="43.47392" lon="6.79637">
        <ele>163.651459</ele>
        <time>2017-08-13T08:23:20Z</time>
      </trkpt>
      <trkpt lat="43.47431" lon="6.79633">
        <ele>162.529877</ele>
        <time>2017-08-13T08:23:37Z</time>
      </trkpt>
      <trkpt lat="43.47466" lon="6.7961">
        <ele>160.206558</ele>
        <time>2017-08-13T08:23:52Z</time>
      </trkpt>
      <trkpt lat="43.4749" lon="6.79568">
        <ele>165.813156</ele>
        <time>2017-08-13T08:24:08Z</time>
      </trkpt>
      <trkpt lat="43.47512" lon="6.7952">
        <ele>170.110901</ele>
        <time>2017-08-13T08:24:26Z</time>
      </trkpt>
      <trkpt lat="43.47547" lon="6.79486">
        <ele>168.874481</ele>
        <time>2017-08-13T08:24:42Z</time>
      </trkpt>
      <trkpt lat="43.47582" lon="6.79456">
        <ele>168.449203</ele>
        <time>2017-08-13T08:24:56Z</time>
      </trkpt>
      <trkpt lat="43.47619" lon="6.79428">
        <ele>168.607742</ele>
        <time>2017-08-13T08:25:10Z</time>
      </trkpt>
      <trkpt lat="43.47653" lon="6.79398">
        <ele>174.7043</ele>
        <time>2017-08-13T08:25:25Z</time>
      </trkpt>
      <trkpt lat="43.47693" lon="6.79387">
        <ele>178.276352</ele>
        <time>2017-08-13T08:25:40Z</time>
      </trkpt>
      <trkpt lat="43.47731" lon="6.79409">
        <ele>175.368622</ele>
        <time>2017-08-13T08:25:53Z</time>
      </trkpt>
      <trkpt lat="43.47773" lon="6.79404">
        <ele>177.521011</ele>
        <time>2017-08-13T08:26:06Z</time>
      </trkpt>
      <trkpt lat="43.47811" lon="6.79392">
        <ele>178.165543</ele>
        <time>2017-08-13T08:26:18Z</time>
      </trkpt>
      <trkpt lat="43.47851" lon="6.79374">
        <ele>179.671997</ele>
        <time>2017-08-13T08:26:32Z</time>
      </trkpt>
      <trkpt lat="43.47891" lon="6.79356">
        <ele>181.532379</ele>
        <time>2017-08-13T08:26:44Z</time>
      </trkpt>
      <trkpt lat="43.47929" lon="6.79336">
        <ele>183.477081</ele>
        <time>2017-08-13T08:27:02Z</time>
      </trkpt>
      <trkpt lat="43.47964" lon="6.79324">
        <ele>185.383728</ele>
        <time>2017-08-13T08:27:23Z</time>
      </trkpt>
      <trkpt lat="43.48007" lon="6.79318">
        <ele>185.802628</ele>
        <time>2017-08-13T08:27:48Z</time>
      </trkpt>
      <trkpt lat="43.48047" lon="6.79311">
        <ele>186.516373</ele>
        <time>2017-08-13T08:28:15Z</time>
      </trkpt>
      <trkpt lat="43.48079" lon="6.793">
        <ele>191.637756</ele>
        <time>2017-08-13T08:28:37Z</time>
      </trkpt>
      <trkpt lat="43.48116" lon="6.79313">
        <ele>191.059723</ele>
        <time>2017-08-13T08:29:00Z</time>
      </trkpt>
      <trkpt lat="43.48153" lon="6.79313">
        <ele>196.928268</ele>
        <time>2017-08-13T08:29:24Z</time>
      </trkpt>
      <trkpt lat="43.48192" lon="6.79329">
        <ele>200.157242</ele>
        <time>2017-08-13T08:29:47Z</time>
      </trkpt>
      <trkpt lat="43.48229" lon="6.79336">
        <ele>203.937439</ele>
        <time>2017-08-13T08:30:11Z</time>
      </trkpt>
      <trkpt lat="43.48266" lon="6.7932">
        <ele>210.676132</ele>
        <time>2017-08-13T08:30:35Z</time>
      </trkpt>
      <trkpt lat="43.48295" lon="6.79312">
        <ele>216.007462</ele>
        <time>2017-08-13T08:30:59Z</time>
      </trkpt>
      <trkpt lat="43.48305" lon="6.79361">
        <ele>211.212616</ele>
        <time>2017-08-13T08:31:20Z</time>
      </trkpt>
      <trkpt lat="43.4833" lon="6.79401">
        <ele>217.107452</ele>
        <time>2017-08-13T08:31:44Z</time>
      </trkpt>
      <trkpt lat="43.48338" lon="6.79451">
        <ele>219.097427</ele>
        <time>2017-08-13T08:32:11Z</time>
      </trkpt>
      <trkpt lat="43.48302" lon="6.79441">
        <ele>216.92572</ele>
        <time>2017-08-13T08:33:48Z</time>
      </trkpt>
      <trkpt lat="43.48263" lon="6.79436">
        <ele>217.833893</ele>
        <time>2017-08-13T08:34:11Z</time>
      </trkpt>
      <trkpt lat="43.48224" lon="6.79454">
        <ele>222.816681</ele>
        <time>2017-08-13T08:34:36Z</time>
      </trkpt>
      <trkpt lat="43.48186" lon="6.79475">
        <ele>223.757309</ele>
        <time>2017-08-13T08:35:01Z</time>
      </trkpt>
      <trkpt lat="43.48152" lon="6.79503">
        <ele>225.491882</ele>
        <time>2017-08-13T08:35:25Z</time>
      </trkpt>
      <trkpt lat="43.48118" lon="6.79532">
        <ele>228.301208</ele>
        <time>2017-08-13T08:35:48Z</time>
      </trkpt>
      <trkpt lat="43.48088" lon="6.7958">
        <ele>232.281967</ele>
        <time>2017-08-13T08:36:15Z</time>
      </trkpt>
      <trkpt lat="43.48085" lon="6.79636">
        <ele>236.092163</ele>
        <time>2017-08-13T08:36:40Z</time>
      </trkpt>
      <trkpt lat="43.48095" lon="6.7969">
        <ele>240.175262</ele>
        <time>2017-08-13T08:37:07Z</time>
      </trkpt>
      <trkpt lat="43.48112" lon="6.79738">
        <ele>245.199768</ele>
        <time>2017-08-13T08:37:33Z</time>
      </trkpt>
      <trkpt lat="43.48102" lon="6.79791">
        <ele>246.507202</ele>
        <time>2017-08-13T08:37:56Z</time>
      </trkpt>
      <trkpt lat="43.48081" lon="6.79839">
        <ele>249.134384</ele>
        <time>2017-08-13T08:38:19Z</time>
      </trkpt>
      <trkpt lat="43.48058" lon="6.79883">
        <ele>250.678162</ele>
        <time>2017-08-13T08:38:45Z</time>
      </trkpt>
      <trkpt lat="43.48069" lon="6.79918">
        <ele>253.501007</ele>
        <time>2017-08-13T08:39:47Z</time>
      </trkpt>
      <trkpt lat="43.48099" lon="6.79954">
        <ele>253.581253</ele>
        <time>2017-08-13T08:40:12Z</time>
      </trkpt>
      <trkpt lat="43.48133" lon="6.79989">
        <ele>256.843964</ele>
        <time>2017-08-13T08:40:31Z</time>
      </trkpt>
      <trkpt lat="43.48166" lon="6.80025">
        <ele>256.782806</ele>
        <time>2017-08-13T08:40:50Z</time>
      </trkpt>
      <trkpt lat="43.482" lon="6.80048">
        <ele>257.388794</ele>
        <time>2017-08-13T08:41:10Z</time>
      </trkpt>
      <trkpt lat="43.48239" lon="6.80063">
        <ele>257.693909</ele>
        <time>2017-08-13T08:41:30Z</time>
      </trkpt>
      <trkpt lat="43.48278" lon="6.80059">
        <ele>260.175476</ele>
        <time>2017-08-13T08:41:50Z</time>
      </trkpt>
      <trkpt lat="43.48316" lon="6.80044">
        <ele>260.644318</ele>
        <time>2017-08-13T08:42:10Z</time>
      </trkpt>
      <trkpt lat="43.48351" lon="6.80016">
        <ele>263.240417</ele>
        <time>2017-08-13T08:42:32Z</time>
      </trkpt>
      <trkpt lat="43.48387" lon="6.79991">
        <ele>261.249603</ele>
        <time>2017-08-13T08:42:53Z</time>
      </trkpt>
      <trkpt lat="43.48406" lon="6.79945">
        <ele>271.522491</ele>
        <time>2017-08-13T08:43:13Z</time>
      </trkpt>
      <trkpt lat="43.48436" lon="6.79954">
        <ele>274.244049</ele>
        <time>2017-08-13T08:43:31Z</time>
      </trkpt>
      <trkpt lat="43.48466" lon="6.79991">
        <ele>277.64325</ele>
        <time>2017-08-13T08:43:53Z</time>
      </trkpt>
      <trkpt lat="43.48481" lon="6.80042">
        <ele>275.982025</ele>
        <time>2017-08-13T08:44:10Z</time>
      </trkpt>
      <trkpt lat="43.48495" lon="6.80096">
        <ele>276.922485</ele>
        <time>2017-08-13T08:44:29Z</time>
      </trkpt>
      <trkpt lat="43.4852" lon="6.80143">
        <ele>280.77179</ele>
        <time>2017-08-13T08:44:48Z</time>
      </trkpt>
      <trkpt lat="43.4855" lon="6.80182">
        <ele>283.667816</ele>
        <time>2017-08-13T08:45:08Z</time>
      </trkpt>
      <trkpt lat="43.4858" lon="6.80217">
        <ele>286.242493</ele>
        <time>2017-08-13T08:45:26Z</time>
      </trkpt>
      <trkpt lat="43.48611" lon="6.80252">
        <ele>287.333649</ele>
        <time>2017-08-13T08:45:46Z</time>
      </trkpt>
      <trkpt lat="43.48644" lon="6.80283">
        <ele>290.028931</ele>
        <time>2017-08-13T08:46:03Z</time>
      </trkpt>
      <trkpt lat="43.48674" lon="6.80314">
        <ele>290.417633</ele>
        <time>2017-08-13T08:46:22Z</time>
      </trkpt>
      <trkpt lat="43.48705" lon="6.80344">
        <ele>284.022034</ele>
        <time>2017-08-13T08:46:43Z</time>
      </trkpt>
      <trkpt lat="43.48737" lon="6.80311">
        <ele>283.9375</ele>
        <time>2017-08-13T08:49:07Z</time>
      </trkpt>
      <trkpt lat="43.48748" lon="6.8026">
        <ele>292.045013</ele>
        <time>2017-08-13T08:49:26Z</time>
      </trkpt>
      <trkpt lat="43.48766" lon="6.80212">
        <ele>293.235809</ele>
        <time>2017-08-13T08:49:46Z</time>
      </trkpt>
      <trkpt lat="43.48779" lon="6.80161">
        <ele>294.268616</ele>
        <time>2017-08-13T08:50:07Z</time>
      </trkpt>
      <trkpt lat="43.48784" lon="6.80105">
        <ele>296.80545</ele>
        <time>2017-08-13T08:50:24Z</time>
      </trkpt>
      <trkpt lat="43.48771" lon="6.8005">
        <ele>301.066345</ele>
        <time>2017-08-13T08:50:43Z</time>
      </trkpt>
      <trkpt lat="43.4875" lon="6.80001">
        <ele>302.725739</ele>
        <time>2017-08-13T08:51:03Z</time>
      </trkpt>
      <trkpt lat="43.4873" lon="6.79952">
        <ele>307.097504</ele>
        <time>2017-08-13T08:51:22Z</time>
      </trkpt>
      <trkpt lat="43.48736" lon="6.79899">
        <ele>306.63678</ele>
        <time>2017-08-13T08:51:39Z</time>
      </trkpt>
      <trkpt lat="43.48761" lon="6.79857">
        <ele>308.217407</ele>
        <time>2017-08-13T08:51:53Z</time>
      </trkpt>
      <trkpt lat="43.48796" lon="6.79825">
        <ele>308.830414</ele>
        <time>2017-08-13T08:52:09Z</time>
      </trkpt>
      <trkpt lat="43.48823" lon="6.79787">
        <ele>310.221985</ele>
        <time>2017-08-13T08:52:27Z</time>
      </trkpt>
      <trkpt lat="43.4884" lon="6.79737">
        <ele>311.494476</ele>
        <time>2017-08-13T08:52:47Z</time>
      </trkpt>
      <trkpt lat="43.48854" lon="6.79683">
        <ele>314.853027</ele>
        <time>2017-08-13T08:53:06Z</time>
      </trkpt>
      <trkpt lat="43.48866" lon="6.79631">
        <ele>317.922974</ele>
        <time>2017-08-13T08:53:25Z</time>
      </trkpt>
      <trkpt lat="43.48881" lon="6.79579">
        <ele>321.672089</ele>
        <time>2017-08-13T08:53:43Z</time>
      </trkpt>
      <trkpt lat="43.48914" lon="6.79583">
        <ele>324.113342</ele>
        <time>2017-08-13T08:54:00Z</time>
      </trkpt>
      <trkpt lat="43.48949" lon="6.7961">
        <ele>319.813629</ele>
        <time>2017-08-13T08:54:17Z</time>
      </trkpt>
      <trkpt lat="43.48988" lon="6.79601">
        <ele>330.114044</ele>
        <time>2017-08-13T08:54:38Z</time>
      </trkpt>
      <trkpt lat="43.4902" lon="6.79622">
        <ele>332.123474</ele>
        <time>2017-08-13T08:55:00Z</time>
      </trkpt>
      <trkpt lat="43.49032" lon="6.79675">
        <ele>332.626434</ele>
        <time>2017-08-13T08:55:19Z</time>
      </trkpt>
      <trkpt lat="43.49039" lon="6.7973">
        <ele>329.594727</ele>
        <time>2017-08-13T08:55:35Z</time>
      </trkpt>
      <trkpt lat="43.49061" lon="6.79777">
        <ele>331.803986</ele>
        <time>2017-08-13T08:55:54Z</time>
      </trkpt>
      <trkpt lat="43.4909" lon="6.79814">
        <ele>335.388</ele>
        <time>2017-08-13T08:56:13Z</time>
      </trkpt>
      <trkpt lat="43.4912" lon="6.79853">
        <ele>340.190002</ele>
        <time>2017-08-13T08:56:33Z</time>
      </trkpt>
      <trkpt lat="43.49137" lon="6.79905">
        <ele>340.667847</ele>
        <time>2017-08-13T08:56:53Z</time>
      </trkpt>
      <trkpt lat="43.49152" lon="6.79967">
        <ele>342.825989</ele>
        <time>2017-08-13T08:57:37Z</time>
      </trkpt>
      <trkpt lat="43.49151" lon="6.79991">
        <ele>343.015839</ele>
        <time>2017-08-13T08:58:50Z</time>
      </trkpt>
      <trkpt lat="43.49196" lon="6.79999">
        <ele>344.248779</ele>
        <time>2017-08-13T09:03:24Z</time>
      </trkpt>
      <trkpt lat="43.49235" lon="6.80023">
        <ele>340.164063</ele>
        <time>2017-08-13T09:03:44Z</time>
      </trkpt>
      <trkpt lat="43.49274" lon="6.8001">
        <ele>346.8125</ele>
        <time>2017-08-13T09:04:03Z</time>
      </trkpt>
      <trkpt lat="43.49314" lon="6.80018">
        <ele>349.963501</ele>
        <time>2017-08-13T09:04:22Z</time>
      </trkpt>
      <trkpt lat="43.49348" lon="6.80045">
        <ele>350.315704</ele>
        <time>2017-08-13T09:04:41Z</time>
      </trkpt>
      <trkpt lat="43.49382" lon="6.80072">
        <ele>351.852783</ele>
        <time>2017-08-13T09:05:00Z</time>
      </trkpt>
      <trkpt lat="43.49411" lon="6.80106">
        <ele>355.897003</ele>
        <time>2017-08-13T09:05:15Z</time>
      </trkpt>
      <trkpt lat="43.49417" lon="6.8016">
        <ele>353.030823</ele>
        <time>2017-08-13T09:05:31Z</time>
      </trkpt>
      <trkpt lat="43.49459" lon="6.80202">
        <ele>353.82782</ele>
        <time>2017-08-13T09:06:34Z</time>
      </trkpt>
      <trkpt lat="43.49505" lon="6.80195">
        <ele>358.708649</ele>
        <time>2017-08-13T09:06:49Z</time>
      </trkpt>
      <trkpt lat="43.49561" lon="6.80174">
        <ele>363.787292</ele>
        <time>2017-08-13T09:07:48Z</time>
      </trkpt>
      <trkpt lat="43.49589" lon="6.80214">
        <ele>361.48233</ele>
        <time>2017-08-13T09:08:06Z</time>
      </trkpt>
      <trkpt lat="43.49614" lon="6.80258">
        <ele>364.038971</ele>
        <time>2017-08-13T09:08:25Z</time>
      </trkpt>
      <trkpt lat="43.49642" lon="6.80297">
        <ele>369.389191</ele>
        <time>2017-08-13T09:08:44Z</time>
      </trkpt>
      <trkpt lat="43.49651" lon="6.80348">
        <ele>369.189087</ele>
        <time>2017-08-13T09:09:02Z</time>
      </trkpt>
      <trkpt lat="43.49669" lon="6.80398">
        <ele>369.89975</ele>
        <time>2017-08-13T09:09:19Z</time>
      </trkpt>
      <trkpt lat="43.49701" lon="6.80432">
        <ele>376.487183</ele>
        <time>2017-08-13T09:09:36Z</time>
      </trkpt>
      <trkpt lat="43.49721" lon="6.80479">
        <ele>378.004791</ele>
        <time>2017-08-13T09:09:52Z</time>
      </trkpt>
      <trkpt lat="43.49735" lon="6.80529">
        <ele>383.383209</ele>
        <time>2017-08-13T09:10:12Z</time>
      </trkpt>
      <trkpt lat="43.49715" lon="6.80573">
        <ele>380.201508</ele>
        <time>2017-08-13T09:10:30Z</time>
      </trkpt>
      <trkpt lat="43.49684" lon="6.80611">
        <ele>380.632141</ele>
        <time>2017-08-13T09:10:44Z</time>
      </trkpt>
      <trkpt lat="43.49699" lon="6.80653">
        <ele>378.836365</ele>
        <time>2017-08-13T09:10:58Z</time>
      </trkpt>
      <trkpt lat="43.49726" lon="6.80694">
        <ele>380.510254</ele>
        <time>2017-08-13T09:11:07Z</time>
      </trkpt>
      <trkpt lat="43.49736" lon="6.80748">
        <ele>380.780243</ele>
        <time>2017-08-13T09:11:15Z</time>
      </trkpt>
      <trkpt lat="43.49741" lon="6.80806">
        <ele>379.725983</ele>
        <time>2017-08-13T09:11:23Z</time>
      </trkpt>
      <trkpt lat="43.49744" lon="6.80863">
        <ele>376.07843</ele>
        <time>2017-08-13T09:11:32Z</time>
      </trkpt>
      <trkpt lat="43.49765" lon="6.8091">
        <ele>370.013123</ele>
        <time>2017-08-13T09:11:42Z</time>
      </trkpt>
      <trkpt lat="43.49802" lon="6.80936">
        <ele>372.655945</ele>
        <time>2017-08-13T09:11:51Z</time>
      </trkpt>
      <trkpt lat="43.4984" lon="6.80968">
        <ele>370.562714</ele>
        <time>2017-08-13T09:11:59Z</time>
      </trkpt>
      <trkpt lat="43.49878" lon="6.81002">
        <ele>371.882172</ele>
        <time>2017-08-13T09:12:06Z</time>
      </trkpt>
      <trkpt lat="43.49907" lon="6.81041">
        <ele>372.371368</ele>
        <time>2017-08-13T09:12:12Z</time>
      </trkpt>
      <trkpt lat="43.49923" lon="6.81094">
        <ele>368.87326</ele>
        <time>2017-08-13T09:12:18Z</time>
      </trkpt>
      <trkpt lat="43.49942" lon="6.81147">
        <ele>368.402893</ele>
        <time>2017-08-13T09:12:24Z</time>
      </trkpt>
      <trkpt lat="43.49957" lon="6.81202">
        <ele>366.703583</ele>
        <time>2017-08-13T09:12:30Z</time>
      </trkpt>
      <trkpt lat="43.49966" lon="6.81258">
        <ele>363.463287</ele>
        <time>2017-08-13T09:12:36Z</time>
      </trkpt>
      <trkpt lat="43.49975" lon="6.81313">
        <ele>362.397186</ele>
        <time>2017-08-13T09:12:42Z</time>
      </trkpt>
      <trkpt lat="43.49965" lon="6.81364">
        <ele>363.159821</ele>
        <time>2017-08-13T09:12:49Z</time>
      </trkpt>
      <trkpt lat="43.49928" lon="6.81396">
        <ele>362.74588</ele>
        <time>2017-08-13T09:12:56Z</time>
      </trkpt>
      <trkpt lat="43.49885" lon="6.81376">
        <ele>355.662231</ele>
        <time>2017-08-13T09:13:03Z</time>
      </trkpt>
      <trkpt lat="43.4984" lon="6.81379">
        <ele>362.166473</ele>
        <time>2017-08-13T09:13:10Z</time>
      </trkpt>
      <trkpt lat="43.49801" lon="6.81379">
        <ele>358.119629</ele>
        <time>2017-08-13T09:13:18Z</time>
      </trkpt>
      <trkpt lat="43.49761" lon="6.81391">
        <ele>361.065002</ele>
        <time>2017-08-13T09:13:29Z</time>
      </trkpt>
      <trkpt lat="43.49725" lon="6.81408">
        <ele>361.601196</ele>
        <time>2017-08-13T09:14:05Z</time>
      </trkpt>
      <trkpt lat="43.49766" lon="6.81388">
        <ele>360.063049</ele>
        <time>2017-08-13T09:14:25Z</time>
      </trkpt>
      <trkpt lat="43.49733" lon="6.81403">
        <ele>361.546387</ele>
        <time>2017-08-13T09:15:12Z</time>
      </trkpt>
      <trkpt lat="43.49707" lon="6.81443">
        <ele>360.624084</ele>
        <time>2017-08-13T09:15:28Z</time>
      </trkpt>
      <trkpt lat="43.49712" lon="6.81503">
        <ele>364.837738</ele>
        <time>2017-08-13T09:17:19Z</time>
      </trkpt>
      <trkpt lat="43.49719" lon="6.81558">
        <ele>371.292511</ele>
        <time>2017-08-13T09:17:34Z</time>
      </trkpt>
      <trkpt lat="43.49686" lon="6.8159">
        <ele>366.253571</ele>
        <time>2017-08-13T09:17:47Z</time>
      </trkpt>
      <trkpt lat="43.49659" lon="6.81632">
        <ele>369.045532</ele>
        <time>2017-08-13T09:18:01Z</time>
      </trkpt>
      <trkpt lat="43.49632" lon="6.81676">
        <ele>369.115936</ele>
        <time>2017-08-13T09:18:13Z</time>
      </trkpt>
      <trkpt lat="43.49609" lon="6.81727">
        <ele>370.715637</ele>
        <time>2017-08-13T09:18:26Z</time>
      </trkpt>
      <trkpt lat="43.4959" lon="6.81779">
        <ele>372.686523</ele>
        <time>2017-08-13T09:18:38Z</time>
      </trkpt>
      <trkpt lat="43.49575" lon="6.8183">
        <ele>367.310486</ele>
        <time>2017-08-13T09:18:54Z</time>
      </trkpt>
      <trkpt lat="43.4961" lon="6.81848">
        <ele>368.631989</ele>
        <time>2017-08-13T09:19:17Z</time>
      </trkpt>
      <trkpt lat="43.4964" lon="6.81881">
        <ele>371.84845</ele>
        <time>2017-08-13T09:19:27Z</time>
      </trkpt>
      <trkpt lat="43.49632" lon="6.81934">
        <ele>363.915619</ele>
        <time>2017-08-13T09:19:34Z</time>
      </trkpt>
      <trkpt lat="43.49644" lon="6.81991">
        <ele>363.379944</ele>
        <time>2017-08-13T09:19:41Z</time>
      </trkpt>
      <trkpt lat="43.49665" lon="6.82046">
        <ele>363.601074</ele>
        <time>2017-08-13T09:19:48Z</time>
      </trkpt>
      <trkpt lat="43.49681" lon="6.82097">
        <ele>356.069366</ele>
        <time>2017-08-13T09:19:55Z</time>
      </trkpt>
      <trkpt lat="43.49718" lon="6.82124">
        <ele>354.425598</ele>
        <time>2017-08-13T09:20:04Z</time>
      </trkpt>
      <trkpt lat="43.49757" lon="6.82134">
        <ele>356.141357</ele>
        <time>2017-08-13T09:20:14Z</time>
      </trkpt>
      <trkpt lat="43.49794" lon="6.8216">
        <ele>356.921722</ele>
        <time>2017-08-13T09:20:24Z</time>
      </trkpt>
      <trkpt lat="43.49792" lon="6.82209">
        <ele>358.020569</ele>
        <time>2017-08-13T09:20:33Z</time>
      </trkpt>
      <trkpt lat="43.49762" lon="6.82245">
        <ele>348.603912</ele>
        <time>2017-08-13T09:20:43Z</time>
      </trkpt>
      <trkpt lat="43.49736" lon="6.82286">
        <ele>346.814362</ele>
        <time>2017-08-13T09:20:51Z</time>
      </trkpt>
      <trkpt lat="43.49753" lon="6.8233">
        <ele>347.222656</ele>
        <time>2017-08-13T09:21:03Z</time>
      </trkpt>
      <trkpt lat="43.49779" lon="6.82374">
        <ele>354.518982</ele>
        <time>2017-08-13T09:21:15Z</time>
      </trkpt>
      <trkpt lat="43.49789" lon="6.82425">
        <ele>354.448212</ele>
        <time>2017-08-13T09:21:34Z</time>
      </trkpt>
      <trkpt lat="43.49808" lon="6.82488">
        <ele>354.935638</ele>
        <time>2017-08-13T09:23:24Z</time>
      </trkpt>
      <trkpt lat="43.49838" lon="6.82524">
        <ele>358.173676</ele>
        <time>2017-08-13T09:23:44Z</time>
      </trkpt>
      <trkpt lat="43.49868" lon="6.82559">
        <ele>364.06842</ele>
        <time>2017-08-13T09:24:03Z</time>
      </trkpt>
      <trkpt lat="43.49881" lon="6.82613">
        <ele>364.370117</ele>
        <time>2017-08-13T09:24:24Z</time>
      </trkpt>
      <trkpt lat="43.49886" lon="6.82672">
        <ele>366.341156</ele>
        <time>2017-08-13T09:24:45Z</time>
      </trkpt>
      <trkpt lat="43.49876" lon="6.82726">
        <ele>369.941589</ele>
        <time>2017-08-13T09:25:04Z</time>
      </trkpt>
      <trkpt lat="43.49855" lon="6.82776">
        <ele>371.376648</ele>
        <time>2017-08-13T09:25:23Z</time>
      </trkpt>
      <trkpt lat="43.49827" lon="6.82817">
        <ele>367.036102</ele>
        <time>2017-08-13T09:25:44Z</time>
      </trkpt>
      <trkpt lat="43.49817" lon="6.8287">
        <ele>368.678894</ele>
        <time>2017-08-13T09:26:03Z</time>
      </trkpt>
      <trkpt lat="43.49833" lon="6.8292">
        <ele>368.328949</ele>
        <time>2017-08-13T09:26:20Z</time>
      </trkpt>
      <trkpt lat="43.49873" lon="6.82916">
        <ele>372.664307</ele>
        <time>2017-08-13T09:26:38Z</time>
      </trkpt>
      <trkpt lat="43.49914" lon="6.82915">
        <ele>375.681854</ele>
        <time>2017-08-13T09:26:59Z</time>
      </trkpt>
      <trkpt lat="43.49955" lon="6.8293">
        <ele>378.96286</ele>
        <time>2017-08-13T09:27:17Z</time>
      </trkpt>
      <trkpt lat="43.49981" lon="6.82972">
        <ele>375.421265</ele>
        <time>2017-08-13T09:27:33Z</time>
      </trkpt>
      <trkpt lat="43.50017" lon="6.82992">
        <ele>382.032501</ele>
        <time>2017-08-13T09:27:53Z</time>
      </trkpt>
      <trkpt lat="43.5005" lon="6.83022">
        <ele>382.111298</ele>
        <time>2017-08-13T09:28:15Z</time>
      </trkpt>
      <trkpt lat="43.50085" lon="6.83044">
        <ele>389.173187</ele>
        <time>2017-08-13T09:28:37Z</time>
      </trkpt>
      <trkpt lat="43.50118" lon="6.8307">
        <ele>384.683838</ele>
        <time>2017-08-13T09:29:01Z</time>
      </trkpt>
      <trkpt lat="43.50153" lon="6.8304">
        <ele>389.358734</ele>
        <time>2017-08-13T09:29:21Z</time>
      </trkpt>
      <trkpt lat="43.50184" lon="6.83003">
        <ele>391.101257</ele>
        <time>2017-08-13T09:29:42Z</time>
      </trkpt>
      <trkpt lat="43.50211" lon="6.82964">
        <ele>393.869476</ele>
        <time>2017-08-13T09:30:01Z</time>
      </trkpt>
      <trkpt lat="43.5023" lon="6.82938">
        <ele>397.100006</ele>
        <time>2017-08-13T09:30:26Z</time>
      </trkpt>
      <trkpt lat="43.50261" lon="6.82971">
        <ele>403.85376</ele>
        <time>2017-08-13T09:30:48Z</time>
      </trkpt>
      <trkpt lat="43.50277" lon="6.83023">
        <ele>404.343964</ele>
        <time>2017-08-13T09:31:08Z</time>
      </trkpt>
      <trkpt lat="43.50284" lon="6.83076">
        <ele>404.930756</ele>
        <time>2017-08-13T09:31:28Z</time>
      </trkpt>
      <trkpt lat="43.50295" lon="6.83129">
        <ele>405.623627</ele>
        <time>2017-08-13T09:31:47Z</time>
      </trkpt>
      <trkpt lat="43.50309" lon="6.83185">
        <ele>406.06424</ele>
        <time>2017-08-13T09:32:03Z</time>
      </trkpt>
      <trkpt lat="43.50317" lon="6.83242">
        <ele>399.923096</ele>
        <time>2017-08-13T09:32:14Z</time>
      </trkpt>
      <trkpt lat="43.50345" lon="6.83281">
        <ele>398.195374</ele>
        <time>2017-08-13T09:32:24Z</time>
      </trkpt>
      <trkpt lat="43.50385" lon="6.83275">
        <ele>400.055969</ele>
        <time>2017-08-13T09:32:32Z</time>
      </trkpt>
      <trkpt lat="43.50425" lon="6.83271">
        <ele>400.259583</ele>
        <time>2017-08-13T09:32:40Z</time>
      </trkpt>
      <trkpt lat="43.50469" lon="6.83279">
        <ele>396.040375</ele>
        <time>2017-08-13T09:32:48Z</time>
      </trkpt>
      <trkpt lat="43.5051" lon="6.833">
        <ele>392.833649</ele>
        <time>2017-08-13T09:32:55Z</time>
      </trkpt>
      <trkpt lat="43.50551" lon="6.83326">
        <ele>392.296356</ele>
        <time>2017-08-13T09:33:02Z</time>
      </trkpt>
      <trkpt lat="43.50589" lon="6.83348">
        <ele>391.269989</ele>
        <time>2017-08-13T09:33:09Z</time>
      </trkpt>
      <trkpt lat="43.50621" lon="6.83375">
        <ele>389.761505</ele>
        <time>2017-08-13T09:33:23Z</time>
      </trkpt>
      <trkpt lat="43.50649" lon="6.83419">
        <ele>388.533417</ele>
        <time>2017-08-13T09:33:39Z</time>
      </trkpt>
      <trkpt lat="43.50666" lon="6.8347">
        <ele>391.478943</ele>
        <time>2017-08-13T09:33:53Z</time>
      </trkpt>
      <trkpt lat="43.50684" lon="6.83516">
        <ele>394.32901</ele>
        <time>2017-08-13T09:34:10Z</time>
      </trkpt>
      <trkpt lat="43.50698" lon="6.83566">
        <ele>398.819733</ele>
        <time>2017-08-13T09:34:29Z</time>
      </trkpt>
      <trkpt lat="43.50716" lon="6.83612">
        <ele>401.536469</ele>
        <time>2017-08-13T09:34:52Z</time>
      </trkpt>
      <trkpt lat="43.50736" lon="6.8366">
        <ele>402.897522</ele>
        <time>2017-08-13T09:35:14Z</time>
      </trkpt>
      <trkpt lat="43.50756" lon="6.8371">
        <ele>405.555237</ele>
        <time>2017-08-13T09:35:40Z</time>
      </trkpt>
      <trkpt lat="43.50775" lon="6.83758">
        <ele>410.408936</ele>
        <time>2017-08-13T09:36:05Z</time>
      </trkpt>
      <trkpt lat="43.508" lon="6.83798">
        <ele>413.090485</ele>
        <time>2017-08-13T09:36:30Z</time>
      </trkpt>
      <trkpt lat="43.5083" lon="6.83836">
        <ele>416.401794</ele>
        <time>2017-08-13T09:36:54Z</time>
      </trkpt>
      <trkpt lat="43.5086" lon="6.83872">
        <ele>420.238342</ele>
        <time>2017-08-13T09:37:19Z</time>
      </trkpt>
      <trkpt lat="43.50891" lon="6.83905">
        <ele>423.984375</ele>
        <time>2017-08-13T09:37:45Z</time>
      </trkpt>
      <trkpt lat="43.50927" lon="6.83914">
        <ele>428.995483</ele>
        <time>2017-08-13T09:38:07Z</time>
      </trkpt>
      <trkpt lat="43.50951" lon="6.83868">
        <ele>430.060883</ele>
        <time>2017-08-13T09:38:32Z</time>
      </trkpt>
      <trkpt lat="43.50968" lon="6.83819">
        <ele>425.297943</ele>
        <time>2017-08-13T09:38:56Z</time>
      </trkpt>
      <trkpt lat="43.50975" lon="6.83838">
        <ele>428.76767</ele>
        <time>2017-08-13T09:45:16Z</time>
      </trkpt>
      <trkpt lat="43.50967" lon="6.83893">
        <ele>435.300629</ele>
        <time>2017-08-13T09:45:43Z</time>
      </trkpt>
      <trkpt lat="43.50958" lon="6.83945">
        <ele>439.923584</ele>
        <time>2017-08-13T09:46:10Z</time>
      </trkpt>
      <trkpt lat="43.5093" lon="6.83994">
        <ele>445.008301</ele>
        <time>2017-08-13T09:46:38Z</time>
      </trkpt>
      <trkpt lat="43.50891" lon="6.84">
        <ele>445.66626</ele>
        <time>2017-08-13T09:47:04Z</time>
      </trkpt>
      <trkpt lat="43.5085" lon="6.83984">
        <ele>448.36261</ele>
        <time>2017-08-13T09:47:31Z</time>
      </trkpt>
      <trkpt lat="43.50812" lon="6.8397">
        <ele>451.919739</ele>
        <time>2017-08-13T09:47:57Z</time>
      </trkpt>
      <trkpt lat="43.50769" lon="6.83965">
        <ele>454.799896</ele>
        <time>2017-08-13T09:48:27Z</time>
      </trkpt>
      <trkpt lat="43.50728" lon="6.83967">
        <ele>454.837341</ele>
        <time>2017-08-13T09:48:51Z</time>
      </trkpt>
      <trkpt lat="43.50713" lon="6.84011">
        <ele>458.471893</ele>
        <time>2017-08-13T09:49:14Z</time>
      </trkpt>
      <trkpt lat="43.50717" lon="6.84065">
        <ele>462.393311</ele>
        <time>2017-08-13T09:49:37Z</time>
      </trkpt>
      <trkpt lat="43.50733" lon="6.84113">
        <ele>463.893433</ele>
        <time>2017-08-13T09:49:58Z</time>
      </trkpt>
      <trkpt lat="43.50766" lon="6.84144">
        <ele>465.300995</ele>
        <time>2017-08-13T09:50:18Z</time>
      </trkpt>
      <trkpt lat="43.50803" lon="6.84175">
        <ele>468.504608</ele>
        <time>2017-08-13T09:50:36Z</time>
      </trkpt>
      <trkpt lat="43.50822" lon="6.84229">
        <ele>466.939941</ele>
        <time>2017-08-13T09:50:48Z</time>
      </trkpt>
      <trkpt lat="43.50851" lon="6.84271">
        <ele>467.474091</ele>
        <time>2017-08-13T09:50:58Z</time>
      </trkpt>
      <trkpt lat="43.50855" lon="6.84331">
        <ele>464.640015</ele>
        <time>2017-08-13T09:51:07Z</time>
      </trkpt>
      <trkpt lat="43.5084" lon="6.84385">
        <ele>462.056213</ele>
        <time>2017-08-13T09:51:15Z</time>
      </trkpt>
      <trkpt lat="43.50806" lon="6.84419">
        <ele>458.290009</ele>
        <time>2017-08-13T09:51:22Z</time>
      </trkpt>
      <trkpt lat="43.50762" lon="6.84446">
        <ele>454.531067</ele>
        <time>2017-08-13T09:51:30Z</time>
      </trkpt>
      <trkpt lat="43.5073" lon="6.84474">
        <ele>452.438324</ele>
        <time>2017-08-13T09:51:38Z</time>
      </trkpt>
      <trkpt lat="43.50701" lon="6.84506">
        <ele>452.142914</ele>
        <time>2017-08-13T09:51:49Z</time>
      </trkpt>
      <trkpt lat="43.50665" lon="6.84485">
        <ele>445.94751</ele>
        <time>2017-08-13T09:51:59Z</time>
      </trkpt>
      <trkpt lat="43.50622" lon="6.8449">
        <ele>442.181244</ele>
        <time>2017-08-13T09:52:08Z</time>
      </trkpt>
      <trkpt lat="43.50594" lon="6.84528">
        <ele>441.7453</ele>
        <time>2017-08-13T09:52:16Z</time>
      </trkpt>
      <trkpt lat="43.50577" lon="6.84581">
        <ele>441.11731</ele>
        <time>2017-08-13T09:52:25Z</time>
      </trkpt>
      <trkpt lat="43.50549" lon="6.84554">
        <ele>436.197968</ele>
        <time>2017-08-13T09:52:37Z</time>
      </trkpt>
      <trkpt lat="43.5051" lon="6.84548">
        <ele>432.909088</ele>
        <time>2017-08-13T09:52:45Z</time>
      </trkpt>
      <trkpt lat="43.50472" lon="6.84572">
        <ele>431.515167</ele>
        <time>2017-08-13T09:52:53Z</time>
      </trkpt>
      <trkpt lat="43.50434" lon="6.84594">
        <ele>419.273834</ele>
        <time>2017-08-13T09:53:02Z</time>
      </trkpt>
      <trkpt lat="43.50443" lon="6.84643">
        <ele>427.306824</ele>
        <time>2017-08-13T09:56:24Z</time>
      </trkpt>
      <trkpt lat="43.50444" lon="6.84699">
        <ele>426.240906</ele>
        <time>2017-08-13T09:56:39Z</time>
      </trkpt>
      <trkpt lat="43.50452" lon="6.84755">
        <ele>425.990906</ele>
        <time>2017-08-13T09:56:52Z</time>
      </trkpt>
      <trkpt lat="43.5047" lon="6.84805">
        <ele>427.901184</ele>
        <time>2017-08-13T09:57:23Z</time>
      </trkpt>
      <trkpt lat="43.50463" lon="6.84864">
        <ele>422.469391</ele>
        <time>2017-08-13T09:57:36Z</time>
      </trkpt>
      <trkpt lat="43.50482" lon="6.84911">
        <ele>423.418488</ele>
        <time>2017-08-13T09:57:48Z</time>
      </trkpt>
      <trkpt lat="43.50494" lon="6.84952">
        <ele>423.352509</ele>
        <time>2017-08-13T09:57:59Z</time>
      </trkpt>
      <trkpt lat="43.50457" lon="6.84981">
        <ele>421.407501</ele>
        <time>2017-08-13T09:58:09Z</time>
      </trkpt>
      <trkpt lat="43.50417" lon="6.84977">
        <ele>417.079651</ele>
        <time>2017-08-13T09:58:17Z</time>
      </trkpt>
      <trkpt lat="43.50377" lon="6.84985">
        <ele>413.925232</ele>
        <time>2017-08-13T09:58:27Z</time>
      </trkpt>
      <trkpt lat="43.5038" lon="6.85037">
        <ele>412.981964</ele>
        <time>2017-08-13T09:58:37Z</time>
      </trkpt>
      <trkpt lat="43.50405" lon="6.85082">
        <ele>413.685577</ele>
        <time>2017-08-13T09:58:51Z</time>
      </trkpt>
      <trkpt lat="43.50419" lon="6.85136">
        <ele>409.557251</ele>
        <time>2017-08-13T09:59:01Z</time>
      </trkpt>
      <trkpt lat="43.50434" lon="6.85187">
        <ele>406.610992</ele>
        <time>2017-08-13T09:59:11Z</time>
      </trkpt>
      <trkpt lat="43.50421" lon="6.85233">
        <ele>402.153595</ele>
        <time>2017-08-13T09:59:20Z</time>
      </trkpt>
      <trkpt lat="43.50374" lon="6.85244">
        <ele>398.772125</ele>
        <time>2017-08-13T09:59:28Z</time>
      </trkpt>
      <trkpt lat="43.50337" lon="6.85269">
        <ele>393.690155</ele>
        <time>2017-08-13T09:59:36Z</time>
      </trkpt>
      <trkpt lat="43.50305" lon="6.85312">
        <ele>389.757294</ele>
        <time>2017-08-13T09:59:44Z</time>
      </trkpt>
      <trkpt lat="43.50299" lon="6.85375">
        <ele>389.839386</ele>
        <time>2017-08-13T09:59:51Z</time>
      </trkpt>
      <trkpt lat="43.50294" lon="6.85426">
        <ele>389.070831</ele>
        <time>2017-08-13T09:59:56Z</time>
      </trkpt>
      <trkpt lat="43.50283" lon="6.85487">
        <ele>386.923889</ele>
        <time>2017-08-13T10:00:02Z</time>
      </trkpt>
      <trkpt lat="43.50282" lon="6.85542">
        <ele>383.35788</ele>
        <time>2017-08-13T10:00:08Z</time>
      </trkpt>
      <trkpt lat="43.50293" lon="6.85598">
        <ele>382.069611</ele>
        <time>2017-08-13T10:00:17Z</time>
      </trkpt>
      <trkpt lat="43.50295" lon="6.85658">
        <ele>378.159058</ele>
        <time>2017-08-13T10:00:27Z</time>
      </trkpt>
      <trkpt lat="43.50279" lon="6.85713">
        <ele>374.6698</ele>
        <time>2017-08-13T10:00:35Z</time>
      </trkpt>
      <trkpt lat="43.50288" lon="6.85766">
        <ele>378.490234</ele>
        <time>2017-08-13T10:00:46Z</time>
      </trkpt>
      <trkpt lat="43.5031" lon="6.85816">
        <ele>375.920471</ele>
        <time>2017-08-13T10:00:56Z</time>
      </trkpt>
      <trkpt lat="43.50331" lon="6.8587">
        <ele>375.526215</ele>
        <time>2017-08-13T10:01:06Z</time>
      </trkpt>
      <trkpt lat="43.50345" lon="6.85924">
        <ele>373.13031</ele>
        <time>2017-08-13T10:01:15Z</time>
      </trkpt>
      <trkpt lat="43.50359" lon="6.85978">
        <ele>369.830444</ele>
        <time>2017-08-13T10:01:23Z</time>
      </trkpt>
      <trkpt lat="43.5038" lon="6.86026">
        <ele>367.615601</ele>
        <time>2017-08-13T10:01:32Z</time>
      </trkpt>
      <trkpt lat="43.50406" lon="6.86075">
        <ele>366.422363</ele>
        <time>2017-08-13T10:01:42Z</time>
      </trkpt>
      <trkpt lat="43.50421" lon="6.8613">
        <ele>364.224426</ele>
        <time>2017-08-13T10:01:50Z</time>
      </trkpt>
      <trkpt lat="43.50435" lon="6.86187">
        <ele>363.514221</ele>
        <time>2017-08-13T10:01:57Z</time>
      </trkpt>
      <trkpt lat="43.50415" lon="6.86237">
        <ele>362.457397</ele>
        <time>2017-08-13T10:02:05Z</time>
      </trkpt>
      <trkpt lat="43.50437" lon="6.86283">
        <ele>363.463959</ele>
        <time>2017-08-13T10:02:14Z</time>
      </trkpt>
      <trkpt lat="43.50457" lon="6.86338">
        <ele>362.158997</ele>
        <time>2017-08-13T10:02:23Z</time>
      </trkpt>
      <trkpt lat="43.50452" lon="6.86394">
        <ele>365.10434</ele>
        <time>2017-08-13T10:02:31Z</time>
      </trkpt>
      <trkpt lat="43.50414" lon="6.86429">
        <ele>362.86969</ele>
        <time>2017-08-13T10:02:40Z</time>
      </trkpt>
      <trkpt lat="43.50373" lon="6.8645">
        <ele>357.763092</ele>
        <time>2017-08-13T10:02:47Z</time>
      </trkpt>
      <trkpt lat="43.50332" lon="6.86461">
        <ele>350.247986</ele>
        <time>2017-08-13T10:02:54Z</time>
      </trkpt>
      <trkpt lat="43.50291" lon="6.86486">
        <ele>347.698181</ele>
        <time>2017-08-13T10:03:03Z</time>
      </trkpt>
      <trkpt lat="43.50252" lon="6.86515">
        <ele>346.988007</ele>
        <time>2017-08-13T10:03:10Z</time>
      </trkpt>
      <trkpt lat="43.50212" lon="6.86506">
        <ele>340.934662</ele>
        <time>2017-08-13T10:03:17Z</time>
      </trkpt>
      <trkpt lat="43.5019" lon="6.86459">
        <ele>334.621246</ele>
        <time>2017-08-13T10:03:25Z</time>
      </trkpt>
      <trkpt lat="43.5017" lon="6.86409">
        <ele>329.552063</ele>
        <time>2017-08-13T10:03:32Z</time>
      </trkpt>
      <trkpt lat="43.50138" lon="6.86363">
        <ele>324.191406</ele>
        <time>2017-08-13T10:03:40Z</time>
      </trkpt>
      <trkpt lat="43.501" lon="6.86359">
        <ele>324.699158</ele>
        <time>2017-08-13T10:03:50Z</time>
      </trkpt>
      <trkpt lat="43.50056" lon="6.86374">
        <ele>325.73761</ele>
        <time>2017-08-13T10:03:58Z</time>
      </trkpt>
      <trkpt lat="43.50012" lon="6.86381">
        <ele>322.617188</ele>
        <time>2017-08-13T10:04:05Z</time>
      </trkpt>
      <trkpt lat="43.49972" lon="6.86359">
        <ele>316.986328</ele>
        <time>2017-08-13T10:04:12Z</time>
      </trkpt>
      <trkpt lat="43.49935" lon="6.86338">
        <ele>314.189178</ele>
        <time>2017-08-13T10:04:20Z</time>
      </trkpt>
      <trkpt lat="43.49895" lon="6.86325">
        <ele>310.343658</ele>
        <time>2017-08-13T10:04:29Z</time>
      </trkpt>
      <trkpt lat="43.49855" lon="6.86342">
        <ele>308.82605</ele>
        <time>2017-08-13T10:04:39Z</time>
      </trkpt>
      <trkpt lat="43.49817" lon="6.86363">
        <ele>306.320679</ele>
        <time>2017-08-13T10:04:46Z</time>
      </trkpt>
      <trkpt lat="43.49783" lon="6.8639">
        <ele>302.221252</ele>
        <time>2017-08-13T10:04:52Z</time>
      </trkpt>
      <trkpt lat="43.49748" lon="6.86431">
        <ele>297.600037</ele>
        <time>2017-08-13T10:04:59Z</time>
      </trkpt>
      <trkpt lat="43.49724" lon="6.86477">
        <ele>293.947021</ele>
        <time>2017-08-13T10:05:06Z</time>
      </trkpt>
      <trkpt lat="43.49704" lon="6.86526">
        <ele>291.910004</ele>
        <time>2017-08-13T10:05:12Z</time>
      </trkpt>
      <trkpt lat="43.49684" lon="6.86576">
        <ele>289.08078</ele>
        <time>2017-08-13T10:05:18Z</time>
      </trkpt>
      <trkpt lat="43.49669" lon="6.8663">
        <ele>287.628784</ele>
        <time>2017-08-13T10:05:24Z</time>
      </trkpt>
      <trkpt lat="43.49646" lon="6.86685">
        <ele>283.688721</ele>
        <time>2017-08-13T10:05:30Z</time>
      </trkpt>
      <trkpt lat="43.49628" lon="6.8674">
        <ele>281.502502</ele>
        <time>2017-08-13T10:05:36Z</time>
      </trkpt>
      <trkpt lat="43.496" lon="6.86789">
        <ele>276.854675</ele>
        <time>2017-08-13T10:05:43Z</time>
      </trkpt>
      <trkpt lat="43.49576" lon="6.86841">
        <ele>272.959076</ele>
        <time>2017-08-13T10:05:49Z</time>
      </trkpt>
      <trkpt lat="43.49558" lon="6.8689">
        <ele>269.91925</ele>
        <time>2017-08-13T10:05:54Z</time>
      </trkpt>
      <trkpt lat="43.4954" lon="6.8694">
        <ele>268.43924</ele>
        <time>2017-08-13T10:05:59Z</time>
      </trkpt>
      <trkpt lat="43.4951" lon="6.86976">
        <ele>264.385834</ele>
        <time>2017-08-13T10:06:05Z</time>
      </trkpt>
      <trkpt lat="43.49472" lon="6.87008">
        <ele>260.824707</ele>
        <time>2017-08-13T10:06:12Z</time>
      </trkpt>
      <trkpt lat="43.49444" lon="6.87057">
        <ele>260.379974</ele>
        <time>2017-08-13T10:06:19Z</time>
      </trkpt>
      <trkpt lat="43.49418" lon="6.87101">
        <ele>256.486206</ele>
        <time>2017-08-13T10:06:25Z</time>
      </trkpt>
      <trkpt lat="43.49384" lon="6.87121">
        <ele>251.635773</ele>
        <time>2017-08-13T10:07:19Z</time>
      </trkpt>
      <trkpt lat="43.49364" lon="6.87069">
        <ele>246.946304</ele>
        <time>2017-08-13T10:07:32Z</time>
      </trkpt>
      <trkpt lat="43.49329" lon="6.87049">
        <ele>242.745697</ele>
        <time>2017-08-13T10:07:41Z</time>
      </trkpt>
      <trkpt lat="43.49291" lon="6.8707">
        <ele>242.138168</ele>
        <time>2017-08-13T10:07:49Z</time>
      </trkpt>
      <trkpt lat="43.49252" lon="6.87054">
        <ele>240.934708</ele>
        <time>2017-08-13T10:07:58Z</time>
      </trkpt>
      <trkpt lat="43.49212" lon="6.87046">
        <ele>241.580002</ele>
        <time>2017-08-13T10:08:08Z</time>
      </trkpt>
      <trkpt lat="43.49186" lon="6.87083">
        <ele>243.336945</ele>
        <time>2017-08-13T10:08:19Z</time>
      </trkpt>
      <trkpt lat="43.49213" lon="6.87121">
        <ele>240.085953</ele>
        <time>2017-08-13T10:08:31Z</time>
      </trkpt>
      <trkpt lat="43.49213" lon="6.87179">
        <ele>239.545319</ele>
        <time>2017-08-13T10:08:39Z</time>
      </trkpt>
      <trkpt lat="43.49199" lon="6.87234">
        <ele>235.107117</ele>
        <time>2017-08-13T10:08:49Z</time>
      </trkpt>
      <trkpt lat="43.49182" lon="6.87292">
        <ele>229.274948</ele>
        <time>2017-08-13T10:08:58Z</time>
      </trkpt>
      <trkpt lat="43.49155" lon="6.87332">
        <ele>230.626724</ele>
        <time>2017-08-13T10:09:06Z</time>
      </trkpt>
      <trkpt lat="43.49121" lon="6.87369">
        <ele>232.717987</ele>
        <time>2017-08-13T10:09:16Z</time>
      </trkpt>
      <trkpt lat="43.4908" lon="6.87395">
        <ele>232.33519</ele>
        <time>2017-08-13T10:09:24Z</time>
      </trkpt>
      <trkpt lat="43.49047" lon="6.87363">
        <ele>231.945618</ele>
        <time>2017-08-13T10:09:30Z</time>
      </trkpt>
      <trkpt lat="43.49016" lon="6.87321">
        <ele>232.540253</ele>
        <time>2017-08-13T10:09:36Z</time>
      </trkpt>
      <trkpt lat="43.48981" lon="6.87318">
        <ele>228.290283</ele>
        <time>2017-08-13T10:09:45Z</time>
      </trkpt>
      <trkpt lat="43.48947" lon="6.87288">
        <ele>225.374603</ele>
        <time>2017-08-13T10:09:53Z</time>
      </trkpt>
      <trkpt lat="43.48921" lon="6.87235">
        <ele>224.262192</ele>
        <time>2017-08-13T10:10:00Z</time>
      </trkpt>
      <trkpt lat="43.48908" lon="6.8718">
        <ele>222.061813</ele>
        <time>2017-08-13T10:10:06Z</time>
      </trkpt>
      <trkpt lat="43.48894" lon="6.87128">
        <ele>220.6987</ele>
        <time>2017-08-13T10:10:12Z</time>
      </trkpt>
      <trkpt lat="43.48878" lon="6.87077">
        <ele>218.473633</ele>
        <time>2017-08-13T10:10:18Z</time>
      </trkpt>
      <trkpt lat="43.48869" lon="6.87023">
        <ele>218.349396</ele>
        <time>2017-08-13T10:10:24Z</time>
      </trkpt>
      <trkpt lat="43.48855" lon="6.86969">
        <ele>216.278961</ele>
        <time>2017-08-13T10:10:30Z</time>
      </trkpt>
      <trkpt lat="43.48835" lon="6.86915">
        <ele>213.828674</ele>
        <time>2017-08-13T10:10:36Z</time>
      </trkpt>
      <trkpt lat="43.4881" lon="6.86859">
        <ele>212.586258</ele>
        <time>2017-08-13T10:10:42Z</time>
      </trkpt>
      <trkpt lat="43.48782" lon="6.8682">
        <ele>209.597549</ele>
        <time>2017-08-13T10:10:47Z</time>
      </trkpt>
      <trkpt lat="43.4875" lon="6.86785">
        <ele>208.474426</ele>
        <time>2017-08-13T10:10:52Z</time>
      </trkpt>
      <trkpt lat="43.48713" lon="6.86751">
        <ele>207.428925</ele>
        <time>2017-08-13T10:10:58Z</time>
      </trkpt>
      <trkpt lat="43.48676" lon="6.86754">
        <ele>207.015259</ele>
        <time>2017-08-13T10:11:04Z</time>
      </trkpt>
      <trkpt lat="43.48643" lon="6.86787">
        <ele>203.575012</ele>
        <time>2017-08-13T10:11:12Z</time>
      </trkpt>
      <trkpt lat="43.48609" lon="6.8682">
        <ele>200.949829</ele>
        <time>2017-08-13T10:11:21Z</time>
      </trkpt>
      <trkpt lat="43.48571" lon="6.8685">
        <ele>202.548126</ele>
        <time>2017-08-13T10:11:28Z</time>
      </trkpt>
      <trkpt lat="43.48531" lon="6.86882">
        <ele>203.203796</ele>
        <time>2017-08-13T10:11:35Z</time>
      </trkpt>
      <trkpt lat="43.4849" lon="6.86901">
        <ele>204.675232</ele>
        <time>2017-08-13T10:11:42Z</time>
      </trkpt>
      <trkpt lat="43.4845" lon="6.86897">
        <ele>204.937637</ele>
        <time>2017-08-13T10:11:49Z</time>
      </trkpt>
      <trkpt lat="43.48408" lon="6.86897">
        <ele>203.043701</ele>
        <time>2017-08-13T10:11:59Z</time>
      </trkpt>
      <trkpt lat="43.48377" lon="6.8693">
        <ele>204.633759</ele>
        <time>2017-08-13T10:12:12Z</time>
      </trkpt>
      <trkpt lat="43.48342" lon="6.86964">
        <ele>204.579865</ele>
        <time>2017-08-13T10:12:25Z</time>
      </trkpt>
      <trkpt lat="43.48308" lon="6.86994">
        <ele>207.148193</ele>
        <time>2017-08-13T10:12:33Z</time>
      </trkpt>
      <trkpt lat="43.48302" lon="6.87046">
        <ele>204.553131</ele>
        <time>2017-08-13T10:12:43Z</time>
      </trkpt>
      <trkpt lat="43.48289" lon="6.871">
        <ele>202.809891</ele>
        <time>2017-08-13T10:12:52Z</time>
      </trkpt>
      <trkpt lat="43.48271" lon="6.87149">
        <ele>201.681274</ele>
        <time>2017-08-13T10:13:01Z</time>
      </trkpt>
      <trkpt lat="43.48242" lon="6.87196">
        <ele>202.22049</ele>
        <time>2017-08-13T10:13:12Z</time>
      </trkpt>
      <trkpt lat="43.48215" lon="6.87245">
        <ele>202.616974</ele>
        <time>2017-08-13T10:13:23Z</time>
      </trkpt>
      <trkpt lat="43.48191" lon="6.8729">
        <ele>201.947433</ele>
        <time>2017-08-13T10:13:32Z</time>
      </trkpt>
      <trkpt lat="43.4816" lon="6.87333">
        <ele>200.645996</ele>
        <time>2017-08-13T10:13:43Z</time>
      </trkpt>
      <trkpt lat="43.48127" lon="6.87369">
        <ele>197.081253</ele>
        <time>2017-08-13T10:13:53Z</time>
      </trkpt>
      <trkpt lat="43.48088" lon="6.87378">
        <ele>197.959305</ele>
        <time>2017-08-13T10:14:02Z</time>
      </trkpt>
      <trkpt lat="43.48044" lon="6.87373">
        <ele>200.728561</ele>
        <time>2017-08-13T10:14:10Z</time>
      </trkpt>
      <trkpt lat="43.48" lon="6.87367">
        <ele>200.696747</ele>
        <time>2017-08-13T10:14:18Z</time>
      </trkpt>
      <trkpt lat="43.47956" lon="6.87362">
        <ele>198.605072</ele>
        <time>2017-08-13T10:14:26Z</time>
      </trkpt>
      <trkpt lat="43.47917" lon="6.87338">
        <ele>202.513</ele>
        <time>2017-08-13T10:14:34Z</time>
      </trkpt>
      <trkpt lat="43.47889" lon="6.87295">
        <ele>204.358597</ele>
        <time>2017-08-13T10:14:42Z</time>
      </trkpt>
      <trkpt lat="43.47871" lon="6.87239">
        <ele>203.494507</ele>
        <time>2017-08-13T10:14:51Z</time>
      </trkpt>
      <trkpt lat="43.47867" lon="6.87178">
        <ele>203.501968</ele>
        <time>2017-08-13T10:15:00Z</time>
      </trkpt>
      <trkpt lat="43.47871" lon="6.8712">
        <ele>205.25</ele>
        <time>2017-08-13T10:15:08Z</time>
      </trkpt>
      <trkpt lat="43.47875" lon="6.8706">
        <ele>207.02478</ele>
        <time>2017-08-13T10:15:17Z</time>
      </trkpt>
      <trkpt lat="43.47871" lon="6.87005">
        <ele>207.383194</ele>
        <time>2017-08-13T10:15:27Z</time>
      </trkpt>
      <trkpt lat="43.47853" lon="6.86951">
        <ele>206.530472</ele>
        <time>2017-08-13T10:15:36Z</time>
      </trkpt>
      <trkpt lat="43.4782" lon="6.86919">
        <ele>204.431168</ele>
        <time>2017-08-13T10:15:44Z</time>
      </trkpt>
      <trkpt lat="43.47781" lon="6.86894">
        <ele>206.379379</ele>
        <time>2017-08-13T10:15:53Z</time>
      </trkpt>
      <trkpt lat="43.4774" lon="6.869">
        <ele>206.581787</ele>
        <time>2017-08-13T10:16:02Z</time>
      </trkpt>
      <trkpt lat="43.47714" lon="6.86939">
        <ele>202.382568</ele>
        <time>2017-08-13T10:16:10Z</time>
      </trkpt>
      <trkpt lat="43.4769" lon="6.86989">
        <ele>196.702347</ele>
        <time>2017-08-13T10:16:18Z</time>
      </trkpt>
      <trkpt lat="43.47661" lon="6.87034">
        <ele>196.296036</ele>
        <time>2017-08-13T10:16:26Z</time>
      </trkpt>
      <trkpt lat="43.4764" lon="6.87089">
        <ele>193.047943</ele>
        <time>2017-08-13T10:16:34Z</time>
      </trkpt>
      <trkpt lat="43.4762" lon="6.87142">
        <ele>188.745651</ele>
        <time>2017-08-13T10:16:42Z</time>
      </trkpt>
      <trkpt lat="43.47579" lon="6.87163">
        <ele>188.133926</ele>
        <time>2017-08-13T10:16:50Z</time>
      </trkpt>
      <trkpt lat="43.47535" lon="6.87144">
        <ele>188.994019</ele>
        <time>2017-08-13T10:16:57Z</time>
      </trkpt>
      <trkpt lat="43.4751" lon="6.87094">
        <ele>190.074112</ele>
        <time>2017-08-13T10:17:03Z</time>
      </trkpt>
      <trkpt lat="43.4749" lon="6.87037">
        <ele>190.494995</ele>
        <time>2017-08-13T10:17:09Z</time>
      </trkpt>
      <trkpt lat="43.4747" lon="6.8699">
        <ele>189.762161</ele>
        <time>2017-08-13T10:17:14Z</time>
      </trkpt>
      <trkpt lat="43.47438" lon="6.86947">
        <ele>188.58226</ele>
        <time>2017-08-13T10:17:20Z</time>
      </trkpt>
      <trkpt lat="43.474" lon="6.86918">
        <ele>186.725006</ele>
        <time>2017-08-13T10:17:26Z</time>
      </trkpt>
      <trkpt lat="43.47363" lon="6.86892">
        <ele>183.485001</ele>
        <time>2017-08-13T10:17:32Z</time>
      </trkpt>
      <trkpt lat="43.47335" lon="6.86852">
        <ele>184.200241</ele>
        <time>2017-08-13T10:17:38Z</time>
      </trkpt>
      <trkpt lat="43.473" lon="6.86813">
        <ele>178.737549</ele>
        <time>2017-08-13T10:17:44Z</time>
      </trkpt>
      <trkpt lat="43.47271" lon="6.86764">
        <ele>179.307159</ele>
        <time>2017-08-13T10:17:50Z</time>
      </trkpt>
      <trkpt lat="43.47247" lon="6.86767">
        <ele>179.447433</ele>
        <time>2017-08-13T10:18:00Z</time>
      </trkpt>
      <trkpt lat="43.47232" lon="6.8682">
        <ele>173.072021</ele>
        <time>2017-08-13T10:18:07Z</time>
      </trkpt>
      <trkpt lat="43.47214" lon="6.86872">
        <ele>172.409012</ele>
        <time>2017-08-13T10:18:14Z</time>
      </trkpt>
      <trkpt lat="43.47189" lon="6.86919">
        <ele>171.360214</ele>
        <time>2017-08-13T10:18:22Z</time>
      </trkpt>
      <trkpt lat="43.47151" lon="6.86943">
        <ele>173.258469</ele>
        <time>2017-08-13T10:18:30Z</time>
      </trkpt>
      <trkpt lat="43.47133" lon="6.86993">
        <ele>171.196655</ele>
        <time>2017-08-13T10:18:39Z</time>
      </trkpt>
      <trkpt lat="43.47123" lon="6.87046">
        <ele>173.367538</ele>
        <time>2017-08-13T10:18:46Z</time>
      </trkpt>
      <trkpt lat="43.47124" lon="6.87105">
        <ele>171.515503</ele>
        <time>2017-08-13T10:18:54Z</time>
      </trkpt>
      <trkpt lat="43.47118" lon="6.87153">
        <ele>165.817932</ele>
        <time>2017-08-13T10:19:02Z</time>
      </trkpt>
      <trkpt lat="43.47079" lon="6.87161">
        <ele>165.220673</ele>
        <time>2017-08-13T10:19:10Z</time>
      </trkpt>
      <trkpt lat="43.47033" lon="6.87165">
        <ele>165.737503</ele>
        <time>2017-08-13T10:19:17Z</time>
      </trkpt>
      <trkpt lat="43.47005" lon="6.87135">
        <ele>165.643204</ele>
        <time>2017-08-13T10:19:25Z</time>
      </trkpt>
      <trkpt lat="43.46994" lon="6.87078">
        <ele>167.333618</ele>
        <time>2017-08-13T10:19:32Z</time>
      </trkpt>
      <trkpt lat="43.46968" lon="6.87032">
        <ele>163.330002</ele>
        <time>2017-08-13T10:19:38Z</time>
      </trkpt>
      <trkpt lat="43.46936" lon="6.86984">
        <ele>158.675873</ele>
        <time>2017-08-13T10:19:44Z</time>
      </trkpt>
      <trkpt lat="43.46904" lon="6.86942">
        <ele>152.851395</ele>
        <time>2017-08-13T10:19:49Z</time>
      </trkpt>
      <trkpt lat="43.46875" lon="6.86894">
        <ele>148.677444</ele>
        <time>2017-08-13T10:19:54Z</time>
      </trkpt>
      <trkpt lat="43.46865" lon="6.86832">
        <ele>147.995728</ele>
        <time>2017-08-13T10:20:00Z</time>
      </trkpt>
      <trkpt lat="43.46868" lon="6.86771">
        <ele>147.070877</ele>
        <time>2017-08-13T10:20:05Z</time>
      </trkpt>
      <trkpt lat="43.46876" lon="6.86708">
        <ele>143.902664</ele>
        <time>2017-08-13T10:20:10Z</time>
      </trkpt>
      <trkpt lat="43.46889" lon="6.8665">
        <ele>143.257202</ele>
        <time>2017-08-13T10:20:15Z</time>
      </trkpt>
      <trkpt lat="43.46892" lon="6.86585">
        <ele>139.560715</ele>
        <time>2017-08-13T10:20:21Z</time>
      </trkpt>
      <trkpt lat="43.46901" lon="6.86531">
        <ele>136.95253</ele>
        <time>2017-08-13T10:20:26Z</time>
      </trkpt>
      <trkpt lat="43.46916" lon="6.86473">
        <ele>139.193756</ele>
        <time>2017-08-13T10:20:32Z</time>
      </trkpt>
      <trkpt lat="43.46891" lon="6.86432">
        <ele>133.500458</ele>
        <time>2017-08-13T10:20:38Z</time>
      </trkpt>
      <trkpt lat="43.46861" lon="6.86392">
        <ele>130.573853</ele>
        <time>2017-08-13T10:20:44Z</time>
      </trkpt>
      <trkpt lat="43.46835" lon="6.8634">
        <ele>127.275475</ele>
        <time>2017-08-13T10:20:50Z</time>
      </trkpt>
      <trkpt lat="43.4681" lon="6.86295">
        <ele>123.016853</ele>
        <time>2017-08-13T10:20:55Z</time>
      </trkpt>
      <trkpt lat="43.46787" lon="6.86246">
        <ele>119.804344</ele>
        <time>2017-08-13T10:21:00Z</time>
      </trkpt>
      <trkpt lat="43.46782" lon="6.8619">
        <ele>119.628281</ele>
        <time>2017-08-13T10:21:05Z</time>
      </trkpt>
      <trkpt lat="43.46778" lon="6.86134">
        <ele>119.065353</ele>
        <time>2017-08-13T10:21:10Z</time>
      </trkpt>
      <trkpt lat="43.46746" lon="6.86115">
        <ele>112.249603</ele>
        <time>2017-08-13T10:21:17Z</time>
      </trkpt>
      <trkpt lat="43.46704" lon="6.86116">
        <ele>106.404999</ele>
        <time>2017-08-13T10:21:24Z</time>
      </trkpt>
      <trkpt lat="43.46662" lon="6.86122">
        <ele>103.91967</ele>
        <time>2017-08-13T10:21:30Z</time>
      </trkpt>
      <trkpt lat="43.4662" lon="6.86094">
        <ele>101.221626</ele>
        <time>2017-08-13T10:21:36Z</time>
      </trkpt>
      <trkpt lat="43.4658" lon="6.86058">
        <ele>100.732826</ele>
        <time>2017-08-13T10:21:42Z</time>
      </trkpt>
      <trkpt lat="43.46546" lon="6.86018">
        <ele>97.842316</ele>
        <time>2017-08-13T10:21:48Z</time>
      </trkpt>
      <trkpt lat="43.46559" lon="6.85962">
        <ele>96.449493</ele>
        <time>2017-08-13T10:21:57Z</time>
      </trkpt>
      <trkpt lat="43.46577" lon="6.85912">
        <ele>93.287872</ele>
        <time>2017-08-13T10:22:05Z</time>
      </trkpt>
      <trkpt lat="43.46583" lon="6.85858">
        <ele>91.129128</ele>
        <time>2017-08-13T10:22:14Z</time>
      </trkpt>
      <trkpt lat="43.46565" lon="6.85805">
        <ele>92.003624</ele>
        <time>2017-08-13T10:22:25Z</time>
      </trkpt>
      <trkpt lat="43.46547" lon="6.85755">
        <ele>92.037865</ele>
        <time>2017-08-13T10:22:34Z</time>
      </trkpt>
      <trkpt lat="43.46518" lon="6.85719">
        <ele>95.474388</ele>
        <time>2017-08-13T10:22:44Z</time>
      </trkpt>
      <trkpt lat="43.46515" lon="6.85662">
        <ele>93.995872</ele>
        <time>2017-08-13T10:22:54Z</time>
      </trkpt>
      <trkpt lat="43.46523" lon="6.8561">
        <ele>89.540268</ele>
        <time>2017-08-13T10:23:02Z</time>
      </trkpt>
      <trkpt lat="43.46533" lon="6.85657">
        <ele>88.920601</ele>
        <time>2017-08-13T10:23:10Z</time>
      </trkpt>
      <trkpt lat="43.46532" lon="6.85712">
        <ele>91.933044</ele>
        <time>2017-08-13T10:23:17Z</time>
      </trkpt>
      <trkpt lat="43.46577" lon="6.85733">
        <ele>87.07782</ele>
        <time>2017-08-13T10:23:24Z</time>
      </trkpt>
      <trkpt lat="43.46615" lon="6.85757">
        <ele>84.159996</ele>
        <time>2017-08-13T10:23:30Z</time>
      </trkpt>
      <trkpt lat="43.46653" lon="6.85786">
        <ele>79.910583</ele>
        <time>2017-08-13T10:23:36Z</time>
      </trkpt>
      <trkpt lat="43.46644" lon="6.85837">
        <ele>82.62281</ele>
        <time>2017-08-13T10:23:42Z</time>
      </trkpt>
      <trkpt lat="43.46677" lon="6.85875">
        <ele>79.737801</ele>
        <time>2017-08-13T10:23:50Z</time>
      </trkpt>
      <trkpt lat="43.46688" lon="6.85834">
        <ele>78.226105</ele>
        <time>2017-08-13T10:23:56Z</time>
      </trkpt>
      <trkpt lat="43.46703" lon="6.85782">
        <ele>77.716576</ele>
        <time>2017-08-13T10:24:02Z</time>
      </trkpt>
      <trkpt lat="43.46723" lon="6.85725">
        <ele>73.493721</ele>
        <time>2017-08-13T10:24:08Z</time>
      </trkpt>
      <trkpt lat="43.46742" lon="6.85676">
        <ele>67.760948</ele>
        <time>2017-08-13T10:24:18Z</time>
      </trkpt>
      <trkpt lat="43.4678" lon="6.85655">
        <ele>67.673416</ele>
        <time>2017-08-13T10:24:27Z</time>
      </trkpt>
      <trkpt lat="43.46822" lon="6.85644">
        <ele>68.86824</ele>
        <time>2017-08-13T10:24:34Z</time>
      </trkpt>
      <trkpt lat="43.46864" lon="6.85646">
        <ele>66.837059</ele>
        <time>2017-08-13T10:24:40Z</time>
      </trkpt>
      <trkpt lat="43.4691" lon="6.8564">
        <ele>66.186615</ele>
        <time>2017-08-13T10:24:46Z</time>
      </trkpt>
      <trkpt lat="43.46951" lon="6.85638">
        <ele>67.387779</ele>
        <time>2017-08-13T10:24:52Z</time>
      </trkpt>
      <trkpt lat="43.46999" lon="6.85644">
        <ele>66.773987</ele>
        <time>2017-08-13T10:24:58Z</time>
      </trkpt>
      <trkpt lat="43.47036" lon="6.85636">
        <ele>65.131203</ele>
        <time>2017-08-13T10:25:04Z</time>
      </trkpt>
      <trkpt lat="43.47015" lon="6.85599">
        <ele>64.892746</ele>
        <time>2017-08-13T10:26:07Z</time>
      </trkpt>
      <trkpt lat="43.46974" lon="6.85584">
        <ele>62.193924</ele>
        <time>2017-08-13T10:26:23Z</time>
      </trkpt>
      <trkpt lat="43.46931" lon="6.85576">
        <ele>59.262501</ele>
        <time>2017-08-13T10:26:37Z</time>
      </trkpt>
      <trkpt lat="43.46892" lon="6.85557">
        <ele>59.940823</ele>
        <time>2017-08-13T10:26:51Z</time>
      </trkpt>
      <trkpt lat="43.4685" lon="6.85545">
        <ele>60.292999</ele>
        <time>2017-08-13T10:27:05Z</time>
      </trkpt>
      <trkpt lat="43.46812" lon="6.85527">
        <ele>62.638142</ele>
        <time>2017-08-13T10:27:18Z</time>
      </trkpt>
      <trkpt lat="43.46782" lon="6.85491">
        <ele>66.799919</ele>
        <time>2017-08-13T10:27:33Z</time>
      </trkpt>
      <trkpt lat="43.46766" lon="6.85435">
        <ele>67.546127</ele>
        <time>2017-08-13T10:27:48Z</time>
      </trkpt>
      <trkpt lat="43.46765" lon="6.85374">
        <ele>72.153908</ele>
        <time>2017-08-13T10:28:03Z</time>
      </trkpt>
      <trkpt lat="43.46756" lon="6.85318">
        <ele>72.097572</ele>
        <time>2017-08-13T10:28:16Z</time>
      </trkpt>
      <trkpt lat="43.46753" lon="6.85264">
        <ele>75.961182</ele>
        <time>2017-08-13T10:28:28Z</time>
      </trkpt>
      <trkpt lat="43.46742" lon="6.8521">
        <ele>76.470398</ele>
        <time>2017-08-13T10:28:40Z</time>
      </trkpt>
      <trkpt lat="43.46737" lon="6.85156">
        <ele>75.388649</ele>
        <time>2017-08-13T10:28:53Z</time>
      </trkpt>
      <trkpt lat="43.46749" lon="6.85106">
        <ele>79.398468</ele>
        <time>2017-08-13T10:29:08Z</time>
      </trkpt>
      <trkpt lat="43.46771" lon="6.85056">
        <ele>83.18457</ele>
        <time>2017-08-13T10:29:24Z</time>
      </trkpt>
      <trkpt lat="43.46764" lon="6.85003">
        <ele>80.885002</ele>
        <time>2017-08-13T10:29:39Z</time>
      </trkpt>
      <trkpt lat="43.46761" lon="6.84946">
        <ele>83.867775</ele>
        <time>2017-08-13T10:29:53Z</time>
      </trkpt>
      <trkpt lat="43.46735" lon="6.8491">
        <ele>83.018127</ele>
        <time>2017-08-13T10:30:05Z</time>
      </trkpt>
      <trkpt lat="43.46702" lon="6.84875">
        <ele>82.965919</ele>
        <time>2017-08-13T10:30:16Z</time>
      </trkpt>
      <trkpt lat="43.46673" lon="6.84835">
        <ele>82.812424</ele>
        <time>2017-08-13T10:30:27Z</time>
      </trkpt>
      <trkpt lat="43.46679" lon="6.84782">
        <ele>83.708298</ele>
        <time>2017-08-13T10:30:38Z</time>
      </trkpt>
      <trkpt lat="43.46718" lon="6.84763">
        <ele>85.751251</ele>
        <time>2017-08-13T10:30:50Z</time>
      </trkpt>
      <trkpt lat="43.4676" lon="6.84775">
        <ele>88.247414</ele>
        <time>2017-08-13T10:31:02Z</time>
      </trkpt>
      <trkpt lat="43.46802" lon="6.84778">
        <ele>89.072403</ele>
        <time>2017-08-13T10:31:13Z</time>
      </trkpt>
      <trkpt lat="43.46845" lon="6.84784">
        <ele>90.977859</ele>
        <time>2017-08-13T10:31:25Z</time>
      </trkpt>
      <trkpt lat="43.46886" lon="6.8478">
        <ele>91.807503</ele>
        <time>2017-08-13T10:31:35Z</time>
      </trkpt>
      <trkpt lat="43.46919" lon="6.84747">
        <ele>91.916252</ele>
        <time>2017-08-13T10:31:45Z</time>
      </trkpt>
      <trkpt lat="43.46946" lon="6.84704">
        <ele>92.357498</ele>
        <time>2017-08-13T10:31:56Z</time>
      </trkpt>
      <trkpt lat="43.4698" lon="6.84668">
        <ele>93.109375</ele>
        <time>2017-08-13T10:32:08Z</time>
      </trkpt>
      <trkpt lat="43.47019" lon="6.84642">
        <ele>93.222504</ele>
        <time>2017-08-13T10:32:19Z</time>
      </trkpt>
      <trkpt lat="43.47058" lon="6.84635">
        <ele>96.979416</ele>
        <time>2017-08-13T10:32:30Z</time>
      </trkpt>
      <trkpt lat="43.47075" lon="6.84597">
        <ele>98.353645</ele>
        <time>2017-08-13T10:32:40Z</time>
      </trkpt>
      <trkpt lat="43.47056" lon="6.84547">
        <ele>97.649315</ele>
        <time>2017-08-13T10:32:51Z</time>
      </trkpt>
      <trkpt lat="43.47033" lon="6.845">
        <ele>97.788231</ele>
        <time>2017-08-13T10:33:02Z</time>
      </trkpt>
      <trkpt lat="43.47006" lon="6.84455">
        <ele>97.824997</ele>
        <time>2017-08-13T10:33:14Z</time>
      </trkpt>
      <trkpt lat="43.46988" lon="6.84403">
        <ele>99.808052</ele>
        <time>2017-08-13T10:33:25Z</time>
      </trkpt>
      <trkpt lat="43.46949" lon="6.84388">
        <ele>98.388741</ele>
        <time>2017-08-13T10:33:37Z</time>
      </trkpt>
      <trkpt lat="43.4694" lon="6.84346">
        <ele>101.037605</ele>
        <time>2017-08-13T10:44:29Z</time>
      </trkpt>
      <trkpt lat="43.46972" lon="6.84313">
        <ele>99.083115</ele>
        <time>2017-08-13T10:44:40Z</time>
      </trkpt>
      <trkpt lat="43.46988" lon="6.84256">
        <ele>98.042999</ele>
        <time>2017-08-13T10:44:48Z</time>
      </trkpt>
      <trkpt lat="43.46985" lon="6.84196">
        <ele>96.878197</ele>
        <time>2017-08-13T10:44:55Z</time>
      </trkpt>
      <trkpt lat="43.46967" lon="6.84138">
        <ele>93.491074</ele>
        <time>2017-08-13T10:45:02Z</time>
      </trkpt>
      <trkpt lat="43.46941" lon="6.84092">
        <ele>88.742973</ele>
        <time>2017-08-13T10:45:09Z</time>
      </trkpt>
      <trkpt lat="43.46956" lon="6.84045">
        <ele>86.135597</ele>
        <time>2017-08-13T10:45:23Z</time>
      </trkpt>
      <trkpt lat="43.46994" lon="6.8404">
        <ele>85.952644</ele>
        <time>2017-08-13T10:45:32Z</time>
      </trkpt>
      <trkpt lat="43.47034" lon="6.84052">
        <ele>88.8825</ele>
        <time>2017-08-13T10:45:40Z</time>
      </trkpt>
      <trkpt lat="43.47071" lon="6.84026">
        <ele>88.129074</ele>
        <time>2017-08-13T10:45:48Z</time>
      </trkpt>
      <trkpt lat="43.47109" lon="6.83999">
        <ele>86.674141</ele>
        <time>2017-08-13T10:45:56Z</time>
      </trkpt>
      <trkpt lat="43.47151" lon="6.83977">
        <ele>84.359314</ele>
        <time>2017-08-13T10:46:04Z</time>
      </trkpt>
      <trkpt lat="43.47186" lon="6.8395">
        <ele>81.995499</ele>
        <time>2017-08-13T10:46:11Z</time>
      </trkpt>
      <trkpt lat="43.4722" lon="6.83908">
        <ele>78.030113</ele>
        <time>2017-08-13T10:46:18Z</time>
      </trkpt>
      <trkpt lat="43.47262" lon="6.83885">
        <ele>78.63475</ele>
        <time>2017-08-13T10:46:24Z</time>
      </trkpt>
      <trkpt lat="43.47265" lon="6.83842">
        <ele>78.7752</ele>
        <time>2017-08-13T10:46:33Z</time>
      </trkpt>
      <trkpt lat="43.47241" lon="6.83799">
        <ele>77.232643</ele>
        <time>2017-08-13T10:46:45Z</time>
      </trkpt>
      <trkpt lat="43.47273" lon="6.8377">
        <ele>79.60025</ele>
        <time>2017-08-13T10:46:57Z</time>
      </trkpt>
      <trkpt lat="43.47309" lon="6.8375">
        <ele>82.626663</ele>
        <time>2017-08-13T10:47:10Z</time>
      </trkpt>
      <trkpt lat="43.47321" lon="6.83696">
        <ele>82.923752</ele>
        <time>2017-08-13T10:47:21Z</time>
      </trkpt>
      <trkpt lat="43.47329" lon="6.8364">
        <ele>83.879364</ele>
        <time>2017-08-13T10:47:31Z</time>
      </trkpt>
      <trkpt lat="43.47353" lon="6.83592">
        <ele>83.583</ele>
        <time>2017-08-13T10:47:42Z</time>
      </trkpt>
      <trkpt lat="43.47376" lon="6.83547">
        <ele>83.823547</ele>
        <time>2017-08-13T10:47:54Z</time>
      </trkpt>
      <trkpt lat="43.47407" lon="6.83513">
        <ele>82.928482</ele>
        <time>2017-08-13T10:48:05Z</time>
      </trkpt>
      <trkpt lat="43.47452" lon="6.8351">
        <ele>84.049385</ele>
        <time>2017-08-13T10:48:15Z</time>
      </trkpt>
      <trkpt lat="43.4749" lon="6.83491">
        <ele>84.428001</ele>
        <time>2017-08-13T10:48:23Z</time>
      </trkpt>
      <trkpt lat="43.47518" lon="6.83452">
        <ele>84.082809</ele>
        <time>2017-08-13T10:48:32Z</time>
      </trkpt>
      <trkpt lat="43.47512" lon="6.834">
        <ele>84.433434</ele>
        <time>2017-08-13T10:48:40Z</time>
      </trkpt>
      <trkpt lat="43.47477" lon="6.83373">
        <ele>85.83374</ele>
        <time>2017-08-13T10:48:51Z</time>
      </trkpt>
      <trkpt lat="43.47479" lon="6.83324">
        <ele>90.057121</ele>
        <time>2017-08-13T10:49:07Z</time>
      </trkpt>
      <trkpt lat="43.47489" lon="6.83271">
        <ele>93.363991</ele>
        <time>2017-08-13T10:49:26Z</time>
      </trkpt>
      <trkpt lat="43.47483" lon="6.83215">
        <ele>97.147499</ele>
        <time>2017-08-13T10:49:47Z</time>
      </trkpt>
      <trkpt lat="43.47487" lon="6.83159">
        <ele>100.001251</ele>
        <time>2017-08-13T10:50:05Z</time>
      </trkpt>
      <trkpt lat="43.47485" lon="6.83097">
        <ele>95.166031</ele>
        <time>2017-08-13T10:50:15Z</time>
      </trkpt>
      <trkpt lat="43.47479" lon="6.83037">
        <ele>95.190155</ele>
        <time>2017-08-13T10:50:24Z</time>
      </trkpt>
      <trkpt lat="43.47451" lon="6.82993">
        <ele>93.731659</ele>
        <time>2017-08-13T10:50:33Z</time>
      </trkpt>
      <trkpt lat="43.47414" lon="6.82974">
        <ele>94.959</ele>
        <time>2017-08-13T10:50:41Z</time>
      </trkpt>
      <trkpt lat="43.47385" lon="6.83011">
        <ele>91.980499</ele>
        <time>2017-08-13T10:50:49Z</time>
      </trkpt>
      <trkpt lat="43.47345" lon="6.83002">
        <ele>92.339203</ele>
        <time>2017-08-13T10:50:58Z</time>
      </trkpt>
      <trkpt lat="43.47332" lon="6.82949">
        <ele>92.457497</ele>
        <time>2017-08-13T10:51:05Z</time>
      </trkpt>
      <trkpt lat="43.47305" lon="6.829">
        <ele>86.787498</ele>
        <time>2017-08-13T10:51:12Z</time>
      </trkpt>
      <trkpt lat="43.47272" lon="6.82866">
        <ele>85.408615</ele>
        <time>2017-08-13T10:51:19Z</time>
      </trkpt>
      <trkpt lat="43.47251" lon="6.82812">
        <ele>86.730003</ele>
        <time>2017-08-13T10:51:25Z</time>
      </trkpt>
      <trkpt lat="43.47238" lon="6.82751">
        <ele>86.273827</ele>
        <time>2017-08-13T10:51:31Z</time>
      </trkpt>
      <trkpt lat="43.4724" lon="6.82684">
        <ele>82.75</ele>
        <time>2017-08-13T10:51:37Z</time>
      </trkpt>
      <trkpt lat="43.47245" lon="6.82624">
        <ele>79.745621</ele>
        <time>2017-08-13T10:51:43Z</time>
      </trkpt>
      <trkpt lat="43.47263" lon="6.82573">
        <ele>79.647057</ele>
        <time>2017-08-13T10:51:49Z</time>
      </trkpt>
      <trkpt lat="43.47268" lon="6.82515">
        <ele>79.584999</ele>
        <time>2017-08-13T10:51:56Z</time>
      </trkpt>
      <trkpt lat="43.47286" lon="6.82461">
        <ele>78.364212</ele>
        <time>2017-08-13T10:52:03Z</time>
      </trkpt>
      <trkpt lat="43.47299" lon="6.82402">
        <ele>74.037743</ele>
        <time>2017-08-13T10:52:10Z</time>
      </trkpt>
      <trkpt lat="43.47307" lon="6.82344">
        <ele>72.837646</ele>
        <time>2017-08-13T10:52:16Z</time>
      </trkpt>
      <trkpt lat="43.47312" lon="6.82285">
        <ele>73.086998</ele>
        <time>2017-08-13T10:52:23Z</time>
      </trkpt>
      <trkpt lat="43.47322" lon="6.82228">
        <ele>73.629372</ele>
        <time>2017-08-13T10:52:31Z</time>
      </trkpt>
      <trkpt lat="43.47342" lon="6.82179">
        <ele>74.54084</ele>
        <time>2017-08-13T10:52:39Z</time>
      </trkpt>
      <trkpt lat="43.47372" lon="6.82136">
        <ele>77.310623</ele>
        <time>2017-08-13T10:52:47Z</time>
      </trkpt>
      <trkpt lat="43.47389" lon="6.8208">
        <ele>75.580002</ele>
        <time>2017-08-13T10:52:54Z</time>
      </trkpt>
      <trkpt lat="43.47399" lon="6.82026">
        <ele>79.967422</ele>
        <time>2017-08-13T10:53:03Z</time>
      </trkpt>
      <trkpt lat="43.47399" lon="6.81972">
        <ele>82.108749</ele>
        <time>2017-08-13T10:53:16Z</time>
      </trkpt>
      <trkpt lat="43.47398" lon="6.81913">
        <ele>83.786873</ele>
        <time>2017-08-13T10:53:29Z</time>
      </trkpt>
      <trkpt lat="43.47395" lon="6.81856">
        <ele>80.975227</ele>
        <time>2017-08-13T10:53:43Z</time>
      </trkpt>
      <trkpt lat="43.47374" lon="6.81832">
        <ele>83.185822</ele>
        <time>2017-08-13T10:53:56Z</time>
      </trkpt>
      <trkpt lat="43.47365" lon="6.81886">
        <ele>82.483376</ele>
        <time>2017-08-13T10:54:12Z</time>
      </trkpt>
      <trkpt lat="43.4736" lon="6.8194">
        <ele>80.617729</ele>
        <time>2017-08-13T10:54:27Z</time>
      </trkpt>
      <trkpt lat="43.47355" lon="6.81995">
        <ele>79.63295</ele>
        <time>2017-08-13T10:54:42Z</time>
      </trkpt>
      <trkpt lat="43.47331" lon="6.82044">
        <ele>82.296516</ele>
        <time>2017-08-13T10:55:01Z</time>
      </trkpt>
      <trkpt lat="43.47305" lon="6.82088">
        <ele>83.631378</ele>
        <time>2017-08-13T10:55:17Z</time>
      </trkpt>
      <trkpt lat="43.47282" lon="6.82134">
        <ele>85.295715</ele>
        <time>2017-08-13T10:55:34Z</time>
      </trkpt>
      <trkpt lat="43.47261" lon="6.82183">
        <ele>84.730965</ele>
        <time>2017-08-13T10:55:50Z</time>
      </trkpt>
      <trkpt lat="43.47237" lon="6.82228">
        <ele>83.90625</ele>
        <time>2017-08-13T10:56:07Z</time>
      </trkpt>
      <trkpt lat="43.47206" lon="6.82263">
        <ele>87.242722</ele>
        <time>2017-08-13T10:56:27Z</time>
      </trkpt>
      <trkpt lat="43.47172" lon="6.82292">
        <ele>90.898003</ele>
        <time>2017-08-13T10:56:46Z</time>
      </trkpt>
      <trkpt lat="43.47132" lon="6.82272">
        <ele>101.103844</ele>
        <time>2017-08-13T10:57:04Z</time>
      </trkpt>
      <trkpt lat="43.471" lon="6.82234">
        <ele>104.370125</ele>
        <time>2017-08-13T10:57:23Z</time>
      </trkpt>
      <trkpt lat="43.47115" lon="6.82187">
        <ele>105.608109</ele>
        <time>2017-08-13T10:57:36Z</time>
      </trkpt>
      <trkpt lat="43.471" lon="6.82128">
        <ele>100.747345</ele>
        <time>2017-08-13T10:57:45Z</time>
      </trkpt>
      <trkpt lat="43.47093" lon="6.82069">
        <ele>99.657501</ele>
        <time>2017-08-13T10:57:51Z</time>
      </trkpt>
      <trkpt lat="43.47071" lon="6.82021">
        <ele>98.08522</ele>
        <time>2017-08-13T10:57:56Z</time>
      </trkpt>
      <trkpt lat="43.47044" lon="6.81973">
        <ele>98.295227</ele>
        <time>2017-08-13T10:58:01Z</time>
      </trkpt>
      <trkpt lat="43.47017" lon="6.81922">
        <ele>95.255997</ele>
        <time>2017-08-13T10:58:06Z</time>
      </trkpt>
      <trkpt lat="43.46984" lon="6.81871">
        <ele>91.360237</ele>
        <time>2017-08-13T10:58:11Z</time>
      </trkpt>
      <trkpt lat="43.46955" lon="6.81834">
        <ele>89.928719</ele>
        <time>2017-08-13T10:58:15Z</time>
      </trkpt>
      <trkpt lat="43.46928" lon="6.81779">
        <ele>87.311554</ele>
        <time>2017-08-13T10:58:20Z</time>
      </trkpt>
      <trkpt lat="43.46904" lon="6.81725">
        <ele>82.505722</ele>
        <time>2017-08-13T10:58:25Z</time>
      </trkpt>
      <trkpt lat="43.46886" lon="6.8167">
        <ele>80.584877</ele>
        <time>2017-08-13T10:58:30Z</time>
      </trkpt>
      <trkpt lat="43.46881" lon="6.8161">
        <ele>78.159111</ele>
        <time>2017-08-13T10:58:35Z</time>
      </trkpt>
      <trkpt lat="43.46889" lon="6.8156">
        <ele>79.530533</ele>
        <time>2017-08-13T10:58:41Z</time>
      </trkpt>
      <trkpt lat="43.46905" lon="6.81508">
        <ele>81.671204</ele>
        <time>2017-08-13T10:58:49Z</time>
      </trkpt>
      <trkpt lat="43.46913" lon="6.81451">
        <ele>83.060455</ele>
        <time>2017-08-13T10:59:00Z</time>
      </trkpt>
      <trkpt lat="43.4692" lon="6.81393">
        <ele>83.779999</ele>
        <time>2017-08-13T10:59:09Z</time>
      </trkpt>
      <trkpt lat="43.46919" lon="6.81328">
        <ele>82.385002</ele>
        <time>2017-08-13T10:59:16Z</time>
      </trkpt>
      <trkpt lat="43.46907" lon="6.8127">
        <ele>81.722389</ele>
        <time>2017-08-13T10:59:21Z</time>
      </trkpt>
      <trkpt lat="43.46901" lon="6.81204">
        <ele>80.726349</ele>
        <time>2017-08-13T10:59:26Z</time>
      </trkpt>
      <trkpt lat="43.46896" lon="6.81145">
        <ele>78.136467</ele>
        <time>2017-08-13T10:59:30Z</time>
      </trkpt>
      <trkpt lat="43.46887" lon="6.81086">
        <ele>74.315002</ele>
        <time>2017-08-13T10:59:34Z</time>
      </trkpt>
      <trkpt lat="43.46877" lon="6.81031">
        <ele>72.453629</ele>
        <time>2017-08-13T10:59:38Z</time>
      </trkpt>
      <trkpt lat="43.46882" lon="6.80975">
        <ele>71.946182</ele>
        <time>2017-08-13T10:59:43Z</time>
      </trkpt>
      <trkpt lat="43.46891" lon="6.80917">
        <ele>71.372047</ele>
        <time>2017-08-13T10:59:49Z</time>
      </trkpt>
      <trkpt lat="43.46906" lon="6.80864">
        <ele>71.817497</ele>
        <time>2017-08-13T10:59:56Z</time>
      </trkpt>
      <trkpt lat="43.46917" lon="6.80809">
        <ele>72.0877</ele>
        <time>2017-08-13T11:00:03Z</time>
      </trkpt>
      <trkpt lat="43.46911" lon="6.80752">
        <ele>69.768623</ele>
        <time>2017-08-13T11:00:10Z</time>
      </trkpt>
      <trkpt lat="43.46924" lon="6.80695">
        <ele>69.091904</ele>
        <time>2017-08-13T11:00:18Z</time>
      </trkpt>
      <trkpt lat="43.46933" lon="6.80633">
        <ele>68.039902</ele>
        <time>2017-08-13T11:00:24Z</time>
      </trkpt>
      <trkpt lat="43.46944" lon="6.8058">
        <ele>70.083397</ele>
        <time>2017-08-13T11:00:30Z</time>
      </trkpt>
      <trkpt lat="43.46956" lon="6.8053">
        <ele>73.0261</ele>
        <time>2017-08-13T11:00:45Z</time>
      </trkpt>
      <trkpt lat="43.46965" lon="6.80475">
        <ele>76.238396</ele>
        <time>2017-08-13T11:01:00Z</time>
      </trkpt>
      <trkpt lat="43.46978" lon="6.80425">
        <ele>79.069565</ele>
        <time>2017-08-13T11:01:15Z</time>
      </trkpt>
      <trkpt lat="43.47009" lon="6.80393">
        <ele>80.253754</ele>
        <time>2017-08-13T11:01:35Z</time>
      </trkpt>
      <trkpt lat="43.4703" lon="6.8035">
        <ele>82.042374</ele>
        <time>2017-08-13T11:01:55Z</time>
      </trkpt>
      <trkpt lat="43.47042" lon="6.80297">
        <ele>83.417976</ele>
        <time>2017-08-13T11:02:14Z</time>
      </trkpt>
      <trkpt lat="43.47032" lon="6.80245">
        <ele>88.659996</ele>
        <time>2017-08-13T11:02:36Z</time>
      </trkpt>
      <trkpt lat="43.47038" lon="6.80194">
        <ele>89.986748</ele>
        <time>2017-08-13T11:02:56Z</time>
      </trkpt>
      <trkpt lat="43.47004" lon="6.80163">
        <ele>94.911057</ele>
        <time>2017-08-13T11:03:14Z</time>
      </trkpt>
      <trkpt lat="43.46989" lon="6.80114">
        <ele>96.010002</ele>
        <time>2017-08-13T11:03:32Z</time>
      </trkpt>
      <trkpt lat="43.46952" lon="6.80088">
        <ele>96.89315</ele>
        <time>2017-08-13T11:03:53Z</time>
      </trkpt>
      <trkpt lat="43.46908" lon="6.80075">
        <ele>94.610001</ele>
        <time>2017-08-13T11:04:05Z</time>
      </trkpt>
      <trkpt lat="43.46866" lon="6.80056">
        <ele>92.875771</ele>
        <time>2017-08-13T11:04:15Z</time>
      </trkpt>
      <trkpt lat="43.46826" lon="6.80046">
        <ele>91.835312</ele>
        <time>2017-08-13T11:04:23Z</time>
      </trkpt>
      <trkpt lat="43.46786" lon="6.80021">
        <ele>94.89547</ele>
        <time>2017-08-13T11:04:30Z</time>
      </trkpt>
      <trkpt lat="43.46764" lon="6.79971">
        <ele>97.275002</ele>
        <time>2017-08-13T11:04:36Z</time>
      </trkpt>
      <trkpt lat="43.46749" lon="6.79914">
        <ele>92.242088</ele>
        <time>2017-08-13T11:04:42Z</time>
      </trkpt>
      <trkpt lat="43.46777" lon="6.79878">
        <ele>93.752029</ele>
        <time>2017-08-13T11:04:49Z</time>
      </trkpt>
      <trkpt lat="43.46806" lon="6.79834">
        <ele>91.466179</ele>
        <time>2017-08-13T11:04:56Z</time>
      </trkpt>
      <trkpt lat="43.4684" lon="6.79795">
        <ele>90.43956</ele>
        <time>2017-08-13T11:05:03Z</time>
      </trkpt>
      <trkpt lat="43.46864" lon="6.7975">
        <ele>90.000626</ele>
        <time>2017-08-13T11:05:10Z</time>
      </trkpt>
      <trkpt lat="43.4683" lon="6.79724">
        <ele>88.482323</ele>
        <time>2017-08-13T11:05:19Z</time>
      </trkpt>
      <trkpt lat="43.46787" lon="6.79721">
        <ele>86.535019</ele>
        <time>2017-08-13T11:05:27Z</time>
      </trkpt>
      <trkpt lat="43.46742" lon="6.7971">
        <ele>85.639725</ele>
        <time>2017-08-13T11:05:34Z</time>
      </trkpt>
      <trkpt lat="43.46706" lon="6.79679">
        <ele>87.259941</ele>
        <time>2017-08-13T11:05:41Z</time>
      </trkpt>
      <trkpt lat="43.46686" lon="6.79631">
        <ele>92.10125</ele>
        <time>2017-08-13T11:05:50Z</time>
      </trkpt>
      <trkpt lat="43.46663" lon="6.79591">
        <ele>93.288841</ele>
        <time>2017-08-13T11:06:02Z</time>
      </trkpt>
      <trkpt lat="43.4663" lon="6.79564">
        <ele>93.364349</ele>
        <time>2017-08-13T11:06:21Z</time>
      </trkpt>
      <trkpt lat="43.46607" lon="6.79519">
        <ele>94.076103</ele>
        <time>2017-08-13T11:06:37Z</time>
      </trkpt>
      <trkpt lat="43.46625" lon="6.79468">
        <ele>97.011253</ele>
        <time>2017-08-13T11:06:46Z</time>
      </trkpt>
      <trkpt lat="43.46629" lon="6.79418">
        <ele>97.599152</ele>
        <time>2017-08-13T11:06:57Z</time>
      </trkpt>
      <trkpt lat="43.4661" lon="6.79366">
        <ele>92.43</ele>
        <time>2017-08-13T11:07:08Z</time>
      </trkpt>
      <trkpt lat="43.4663" lon="6.7932">
        <ele>94.604347</ele>
        <time>2017-08-13T11:07:19Z</time>
      </trkpt>
      <trkpt lat="43.4667" lon="6.79324">
        <ele>98.370972</ele>
        <time>2017-08-13T11:07:27Z</time>
      </trkpt>
      <trkpt lat="43.46712" lon="6.79333">
        <ele>100.038818</ele>
        <time>2017-08-13T11:07:37Z</time>
      </trkpt>
      <trkpt lat="43.46756" lon="6.7933">
        <ele>100.21595</ele>
        <time>2017-08-13T11:07:49Z</time>
      </trkpt>
      <trkpt lat="43.46797" lon="6.79334">
        <ele>99.494637</ele>
        <time>2017-08-13T11:08:05Z</time>
      </trkpt>
      <trkpt lat="43.4683" lon="6.7932">
        <ele>100.892326</ele>
        <time>2017-08-13T11:08:34Z</time>
      </trkpt>
      <trkpt lat="43.46796" lon="6.79292">
        <ele>103.838486</ele>
        <time>2017-08-13T11:08:51Z</time>
      </trkpt>
      <trkpt lat="43.46756" lon="6.79275">
        <ele>102.350128</ele>
        <time>2017-08-13T11:09:07Z</time>
      </trkpt>
      <trkpt lat="43.46716" lon="6.79264">
        <ele>99.352898</ele>
        <time>2017-08-13T11:09:23Z</time>
      </trkpt>
      <trkpt lat="43.46699" lon="6.79225">
        <ele>99.544952</ele>
        <time>2017-08-13T11:09:41Z</time>
      </trkpt>
      <trkpt lat="43.46731" lon="6.79192">
        <ele>106.597801</ele>
        <time>2017-08-13T11:10:00Z</time>
      </trkpt>
      <trkpt lat="43.46731" lon="6.79139">
        <ele>103.796997</ele>
        <time>2017-08-13T11:10:20Z</time>
      </trkpt>
      <trkpt lat="43.46734" lon="6.79085">
        <ele>101.749496</ele>
        <time>2017-08-13T11:10:36Z</time>
      </trkpt>
      <trkpt lat="43.46727" lon="6.79038">
        <ele>104.938652</ele>
        <time>2017-08-13T11:11:15Z</time>
      </trkpt>
      <trkpt lat="43.46696" lon="6.78996">
        <ele>108.34478</ele>
        <time>2017-08-13T11:11:28Z</time>
      </trkpt>
      <trkpt lat="43.46671" lon="6.78951">
        <ele>112.403999</ele>
        <time>2017-08-13T11:11:42Z</time>
      </trkpt>
      <trkpt lat="43.46635" lon="6.78938">
        <ele>112.387726</ele>
        <time>2017-08-13T11:11:56Z</time>
      </trkpt>
      <trkpt lat="43.46595" lon="6.78936">
        <ele>114.4245</ele>
        <time>2017-08-13T11:12:11Z</time>
      </trkpt>
      <trkpt lat="43.46569" lon="6.78971">
        <ele>117.430748</ele>
        <time>2017-08-13T11:12:29Z</time>
      </trkpt>
      <trkpt lat="43.46579" lon="6.78999">
        <ele>117.303871</ele>
        <time>2017-08-13T11:12:48Z</time>
      </trkpt>
    </trkseg>
  </trk>
</gpx>